<?xml version="1.0" encoding="UTF-8" standalone="no" ?>
<gpx xmlns="http://www.topografix.com/GPX/1/1" xmlns:xsi="http://www.w3.org/2001/XMLSchema-instance" xsi:schemaLocation="http://www.topografix.com/GPX/1/1 http://www.topografix.com/GPX/1/1/gpx.xsd" version="1.1" creator="VisuGPX - https://www.visugpx.com">
  <metadata>
    <name>Autour de Diesen</name>
    <desc><![CDATA[File with points/tracks from Locus Map/3.29.1]]></desc>
  </metadata>
  <trk>
    <name><![CDATA[2018-02-11 08:54:36]]></name>
    <trkseg>
      <trkpt lat="49.17862" lon="6.68022">
        <ele>153.39</ele>
        <time>2018-02-11T07:54:56.000Z</time>
      </trkpt>
      <trkpt lat="49.17867" lon="6.68016">
        <ele>158.2</ele>
        <time>2018-02-11T07:55:06.000Z</time>
      </trkpt>
      <trkpt lat="49.17869" lon="6.68022">
        <ele>154.17</ele>
        <time>2018-02-11T07:55:16.000Z</time>
      </trkpt>
      <trkpt lat="49.17872" lon="6.68035">
        <ele>151.2</ele>
        <time>2018-02-11T07:55:26.000Z</time>
      </trkpt>
      <trkpt lat="49.17881" lon="6.68034">
        <ele>146.68</ele>
        <time>2018-02-11T07:55:55.000Z</time>
      </trkpt>
      <trkpt lat="49.17884" lon="6.68032">
        <ele>143.01</ele>
        <time>2018-02-11T07:56:05.000Z</time>
      </trkpt>
      <trkpt lat="49.17875" lon="6.6799">
        <ele>137.46</ele>
        <time>2018-02-11T07:57:19.000Z</time>
      </trkpt>
      <trkpt lat="49.17861" lon="6.67991">
        <ele>147.61</ele>
        <time>2018-02-11T07:57:29.000Z</time>
      </trkpt>
      <trkpt lat="49.17862" lon="6.67994">
        <ele>143.86</ele>
        <time>2018-02-11T07:58:48.000Z</time>
      </trkpt>
      <trkpt lat="49.17864" lon="6.67986">
        <ele>154.04</ele>
        <time>2018-02-11T08:01:53.000Z</time>
      </trkpt>
      <trkpt lat="49.17867" lon="6.67991">
        <ele>156.24</ele>
        <time>2018-02-11T08:02:03.000Z</time>
      </trkpt>
      <trkpt lat="49.17874" lon="6.67986">
        <ele>153.34</ele>
        <time>2018-02-11T08:02:13.000Z</time>
      </trkpt>
      <trkpt lat="49.17881" lon="6.67984">
        <ele>148.19</ele>
        <time>2018-02-11T08:02:23.000Z</time>
      </trkpt>
      <trkpt lat="49.17888" lon="6.67981">
        <ele>145.78</ele>
        <time>2018-02-11T08:02:33.000Z</time>
      </trkpt>
      <trkpt lat="49.17892" lon="6.67979">
        <ele>144.01</ele>
        <time>2018-02-11T08:02:43.000Z</time>
      </trkpt>
      <trkpt lat="49.17914" lon="6.67976">
        <ele>149.64</ele>
        <time>2018-02-11T08:02:53.000Z</time>
      </trkpt>
      <trkpt lat="49.17923" lon="6.67971">
        <ele>155.5</ele>
        <time>2018-02-11T08:03:03.000Z</time>
      </trkpt>
      <trkpt lat="49.17928" lon="6.67966">
        <ele>156.58</ele>
        <time>2018-02-11T08:03:13.000Z</time>
      </trkpt>
      <trkpt lat="49.17931" lon="6.67973">
        <ele>153.76</ele>
        <time>2018-02-11T08:03:26.000Z</time>
      </trkpt>
      <trkpt lat="49.1794" lon="6.67978">
        <ele>151.31</ele>
        <time>2018-02-11T08:03:36.000Z</time>
      </trkpt>
      <trkpt lat="49.17954" lon="6.67984">
        <ele>152.31</ele>
        <time>2018-02-11T08:03:46.000Z</time>
      </trkpt>
      <trkpt lat="49.17967" lon="6.67993">
        <ele>162.78</ele>
        <time>2018-02-11T08:03:56.000Z</time>
      </trkpt>
      <trkpt lat="49.17975" lon="6.67994">
        <ele>158.03</ele>
        <time>2018-02-11T08:04:06.000Z</time>
      </trkpt>
      <trkpt lat="49.17983" lon="6.68002">
        <ele>149.82</ele>
        <time>2018-02-11T08:04:16.000Z</time>
      </trkpt>
      <trkpt lat="49.17993" lon="6.68002">
        <ele>144.86</ele>
        <time>2018-02-11T08:04:26.000Z</time>
      </trkpt>
      <trkpt lat="49.17994" lon="6.68007">
        <ele>142.54</ele>
        <time>2018-02-11T08:04:36.000Z</time>
      </trkpt>
      <trkpt lat="49.17998" lon="6.68019">
        <ele>134.17</ele>
        <time>2018-02-11T08:04:46.000Z</time>
      </trkpt>
      <trkpt lat="49.1802" lon="6.6803">
        <ele>146.87</ele>
        <time>2018-02-11T08:04:56.000Z</time>
      </trkpt>
      <trkpt lat="49.18036" lon="6.68041">
        <ele>159.02</ele>
        <time>2018-02-11T08:05:06.000Z</time>
      </trkpt>
      <trkpt lat="49.18044" lon="6.68051">
        <ele>162.48</ele>
        <time>2018-02-11T08:05:16.000Z</time>
      </trkpt>
      <trkpt lat="49.18052" lon="6.68064">
        <ele>160.1</ele>
        <time>2018-02-11T08:05:26.000Z</time>
      </trkpt>
      <trkpt lat="49.18065" lon="6.68082">
        <ele>163.03</ele>
        <time>2018-02-11T08:05:36.000Z</time>
      </trkpt>
      <trkpt lat="49.18077" lon="6.68094">
        <ele>171.32</ele>
        <time>2018-02-11T08:05:46.000Z</time>
      </trkpt>
      <trkpt lat="49.18079" lon="6.68105">
        <ele>175.9</ele>
        <time>2018-02-11T08:05:56.000Z</time>
      </trkpt>
      <trkpt lat="49.18079" lon="6.68108">
        <ele>175.91</ele>
        <time>2018-02-11T08:06:06.000Z</time>
      </trkpt>
      <trkpt lat="49.18088" lon="6.68124">
        <ele>172.49</ele>
        <time>2018-02-11T08:06:16.000Z</time>
      </trkpt>
      <trkpt lat="49.18094" lon="6.68139">
        <ele>172.7</ele>
        <time>2018-02-11T08:06:26.000Z</time>
      </trkpt>
      <trkpt lat="49.18099" lon="6.68155">
        <ele>171.04</ele>
        <time>2018-02-11T08:06:36.000Z</time>
      </trkpt>
      <trkpt lat="49.18106" lon="6.68169">
        <ele>166.36</ele>
        <time>2018-02-11T08:06:46.000Z</time>
      </trkpt>
      <trkpt lat="49.18114" lon="6.68185">
        <ele>160.88</ele>
        <time>2018-02-11T08:06:56.000Z</time>
      </trkpt>
      <trkpt lat="49.18119" lon="6.68196">
        <ele>158.51</ele>
        <time>2018-02-11T08:07:06.000Z</time>
      </trkpt>
      <trkpt lat="49.18131" lon="6.68211">
        <ele>155.97</ele>
        <time>2018-02-11T08:07:16.000Z</time>
      </trkpt>
      <trkpt lat="49.18135" lon="6.68228">
        <ele>155.27</ele>
        <time>2018-02-11T08:07:26.000Z</time>
      </trkpt>
      <trkpt lat="49.18137" lon="6.68237">
        <ele>153.81</ele>
        <time>2018-02-11T08:07:36.000Z</time>
      </trkpt>
      <trkpt lat="49.1814" lon="6.6825">
        <ele>149.03</ele>
        <time>2018-02-11T08:07:46.000Z</time>
      </trkpt>
      <trkpt lat="49.1815" lon="6.68261">
        <ele>148.13</ele>
        <time>2018-02-11T08:07:56.000Z</time>
      </trkpt>
      <trkpt lat="49.1816" lon="6.68268">
        <ele>151.01</ele>
        <time>2018-02-11T08:08:06.000Z</time>
      </trkpt>
      <trkpt lat="49.1817" lon="6.68277">
        <ele>156.03</ele>
        <time>2018-02-11T08:08:16.000Z</time>
      </trkpt>
      <trkpt lat="49.18177" lon="6.68288">
        <ele>158.74</ele>
        <time>2018-02-11T08:08:26.000Z</time>
      </trkpt>
      <trkpt lat="49.18188" lon="6.68296">
        <ele>166.78</ele>
        <time>2018-02-11T08:08:36.000Z</time>
      </trkpt>
      <trkpt lat="49.18194" lon="6.68308">
        <ele>164.86</ele>
        <time>2018-02-11T08:08:48.000Z</time>
      </trkpt>
      <trkpt lat="49.18195" lon="6.68309">
        <ele>160.61</ele>
        <time>2018-02-11T08:08:58.000Z</time>
      </trkpt>
      <trkpt lat="49.18202" lon="6.68315">
        <ele>147.31</ele>
        <time>2018-02-11T08:09:08.000Z</time>
      </trkpt>
      <trkpt lat="49.18207" lon="6.68326">
        <ele>142.21</ele>
        <time>2018-02-11T08:09:20.000Z</time>
      </trkpt>
      <trkpt lat="49.18206" lon="6.68325">
        <ele>139.21</ele>
        <time>2018-02-11T08:09:30.000Z</time>
      </trkpt>
      <trkpt lat="49.18213" lon="6.68334">
        <ele>132.76</ele>
        <time>2018-02-11T08:09:42.000Z</time>
      </trkpt>
      <trkpt lat="49.18214" lon="6.68336">
        <ele>129.41</ele>
        <time>2018-02-11T08:09:52.000Z</time>
      </trkpt>
      <trkpt lat="49.18226" lon="6.68354">
        <ele>123.98</ele>
        <time>2018-02-11T08:10:02.000Z</time>
      </trkpt>
      <trkpt lat="49.18239" lon="6.68365">
        <ele>124.26</ele>
        <time>2018-02-11T08:10:12.000Z</time>
      </trkpt>
      <trkpt lat="49.18243" lon="6.6837">
        <ele>125.01</ele>
        <time>2018-02-11T08:10:22.000Z</time>
      </trkpt>
      <trkpt lat="49.18254" lon="6.68382">
        <ele>122.4</ele>
        <time>2018-02-11T08:10:32.000Z</time>
      </trkpt>
      <trkpt lat="49.18269" lon="6.68388">
        <ele>124.9</ele>
        <time>2018-02-11T08:10:42.000Z</time>
      </trkpt>
      <trkpt lat="49.1828" lon="6.68393">
        <ele>125.21</ele>
        <time>2018-02-11T08:10:52.000Z</time>
      </trkpt>
      <trkpt lat="49.18289" lon="6.684">
        <ele>123.33</ele>
        <time>2018-02-11T08:11:07.000Z</time>
      </trkpt>
      <trkpt lat="49.18306" lon="6.68406">
        <ele>123.71</ele>
        <time>2018-02-11T08:11:17.000Z</time>
      </trkpt>
      <trkpt lat="49.1831" lon="6.68407">
        <ele>124.11</ele>
        <time>2018-02-11T08:11:27.000Z</time>
      </trkpt>
      <trkpt lat="49.18319" lon="6.6841">
        <ele>113.31</ele>
        <time>2018-02-11T08:11:42.000Z</time>
      </trkpt>
      <trkpt lat="49.1833" lon="6.68413">
        <ele>110.98</ele>
        <time>2018-02-11T08:11:52.000Z</time>
      </trkpt>
      <trkpt lat="49.18335" lon="6.68413">
        <ele>104.52</ele>
        <time>2018-02-11T08:12:02.000Z</time>
      </trkpt>
      <trkpt lat="49.18351" lon="6.68414">
        <ele>99.5</ele>
        <time>2018-02-11T08:12:12.000Z</time>
      </trkpt>
      <trkpt lat="49.18357" lon="6.6841">
        <ele>93.16</ele>
        <time>2018-02-11T08:12:35.000Z</time>
      </trkpt>
      <trkpt lat="49.18377" lon="6.68398">
        <ele>96.21</ele>
        <time>2018-02-11T08:12:45.000Z</time>
      </trkpt>
      <trkpt lat="49.18399" lon="6.68382">
        <ele>114.45</ele>
        <time>2018-02-11T08:12:55.000Z</time>
      </trkpt>
      <trkpt lat="49.18433" lon="6.68362">
        <ele>142.58</ele>
        <time>2018-02-11T08:13:05.000Z</time>
      </trkpt>
      <trkpt lat="49.18446" lon="6.68345">
        <ele>142.25</ele>
        <time>2018-02-11T08:13:15.000Z</time>
      </trkpt>
      <trkpt lat="49.18456" lon="6.68336">
        <ele>142.9</ele>
        <time>2018-02-11T08:13:25.000Z</time>
      </trkpt>
      <trkpt lat="49.18458" lon="6.68328">
        <ele>138.71</ele>
        <time>2018-02-11T08:13:35.000Z</time>
      </trkpt>
      <trkpt lat="49.18473" lon="6.68314">
        <ele>135.91</ele>
        <time>2018-02-11T08:13:45.000Z</time>
      </trkpt>
      <trkpt lat="49.18484" lon="6.68311">
        <ele>123.27</ele>
        <time>2018-02-11T08:13:55.000Z</time>
      </trkpt>
      <trkpt lat="49.18494" lon="6.68289">
        <ele>140.3</ele>
        <time>2018-02-11T08:14:05.000Z</time>
      </trkpt>
      <trkpt lat="49.18494" lon="6.68285">
        <ele>136.51</ele>
        <time>2018-02-11T08:14:30.000Z</time>
      </trkpt>
      <trkpt lat="49.1852" lon="6.68282">
        <ele>138.59</ele>
        <time>2018-02-11T08:14:40.000Z</time>
      </trkpt>
      <trkpt lat="49.18535" lon="6.68283">
        <ele>139.35</ele>
        <time>2018-02-11T08:14:50.000Z</time>
      </trkpt>
      <trkpt lat="49.18535" lon="6.68276">
        <ele>137.36</ele>
        <time>2018-02-11T08:15:00.000Z</time>
      </trkpt>
      <trkpt lat="49.18538" lon="6.6827">
        <ele>130.91</ele>
        <time>2018-02-11T08:15:10.000Z</time>
      </trkpt>
      <trkpt lat="49.18538" lon="6.68264">
        <ele>128.31</ele>
        <time>2018-02-11T08:15:23.000Z</time>
      </trkpt>
      <trkpt lat="49.18537" lon="6.68264">
        <ele>126.71</ele>
        <time>2018-02-11T08:15:33.000Z</time>
      </trkpt>
      <trkpt lat="49.1854" lon="6.68263">
        <ele>116.73</ele>
        <time>2018-02-11T08:15:47.000Z</time>
      </trkpt>
      <trkpt lat="49.18544" lon="6.68259">
        <ele>105.39</ele>
        <time>2018-02-11T08:15:57.000Z</time>
      </trkpt>
      <trkpt lat="49.18548" lon="6.68252">
        <ele>95.28</ele>
        <time>2018-02-11T08:16:07.000Z</time>
      </trkpt>
      <trkpt lat="49.18563" lon="6.68243">
        <ele>108.35</ele>
        <time>2018-02-11T08:16:17.000Z</time>
      </trkpt>
      <trkpt lat="49.18594" lon="6.68229">
        <ele>116.37</ele>
        <time>2018-02-11T08:16:27.000Z</time>
      </trkpt>
      <trkpt lat="49.18625" lon="6.68217">
        <ele>135.11</ele>
        <time>2018-02-11T08:16:37.000Z</time>
      </trkpt>
      <trkpt lat="49.1864" lon="6.68196">
        <ele>145</ele>
        <time>2018-02-11T08:16:47.000Z</time>
      </trkpt>
      <trkpt lat="49.18654" lon="6.68185">
        <ele>153.56</ele>
        <time>2018-02-11T08:16:57.000Z</time>
      </trkpt>
      <trkpt lat="49.18671" lon="6.68174">
        <ele>161.22</ele>
        <time>2018-02-11T08:17:07.000Z</time>
      </trkpt>
      <trkpt lat="49.18674" lon="6.68174">
        <ele>160.91</ele>
        <time>2018-02-11T08:17:17.000Z</time>
      </trkpt>
      <trkpt lat="49.1868" lon="6.68161">
        <ele>160.84</ele>
        <time>2018-02-11T08:17:27.000Z</time>
      </trkpt>
      <trkpt lat="49.18681" lon="6.68155">
        <ele>162.71</ele>
        <time>2018-02-11T08:17:37.000Z</time>
      </trkpt>
      <trkpt lat="49.18682" lon="6.68151">
        <ele>155.21</ele>
        <time>2018-02-11T08:18:00.000Z</time>
      </trkpt>
      <trkpt lat="49.18684" lon="6.68152">
        <ele>153.41</ele>
        <time>2018-02-11T08:18:22.000Z</time>
      </trkpt>
      <trkpt lat="49.18686" lon="6.68155">
        <ele>161.94</ele>
        <time>2018-02-11T08:18:32.000Z</time>
      </trkpt>
      <trkpt lat="49.18697" lon="6.6816">
        <ele>174.83</ele>
        <time>2018-02-11T08:18:42.000Z</time>
      </trkpt>
      <trkpt lat="49.18709" lon="6.68155">
        <ele>179.31</ele>
        <time>2018-02-11T08:18:52.000Z</time>
      </trkpt>
      <trkpt lat="49.18717" lon="6.68152">
        <ele>176.66</ele>
        <time>2018-02-11T08:19:02.000Z</time>
      </trkpt>
      <trkpt lat="49.18725" lon="6.68148">
        <ele>173.96</ele>
        <time>2018-02-11T08:19:12.000Z</time>
      </trkpt>
      <trkpt lat="49.18738" lon="6.68141">
        <ele>171.45</ele>
        <time>2018-02-11T08:19:22.000Z</time>
      </trkpt>
      <trkpt lat="49.18747" lon="6.68133">
        <ele>169.22</ele>
        <time>2018-02-11T08:19:32.000Z</time>
      </trkpt>
      <trkpt lat="49.18754" lon="6.68123">
        <ele>167.82</ele>
        <time>2018-02-11T08:19:42.000Z</time>
      </trkpt>
      <trkpt lat="49.18763" lon="6.68114">
        <ele>165.63</ele>
        <time>2018-02-11T08:19:52.000Z</time>
      </trkpt>
      <trkpt lat="49.18774" lon="6.68104">
        <ele>163.7</ele>
        <time>2018-02-11T08:20:02.000Z</time>
      </trkpt>
      <trkpt lat="49.18782" lon="6.68093">
        <ele>161.77</ele>
        <time>2018-02-11T08:20:12.000Z</time>
      </trkpt>
      <trkpt lat="49.18792" lon="6.68083">
        <ele>161.02</ele>
        <time>2018-02-11T08:20:22.000Z</time>
      </trkpt>
      <trkpt lat="49.18802" lon="6.68074">
        <ele>159.56</ele>
        <time>2018-02-11T08:20:32.000Z</time>
      </trkpt>
      <trkpt lat="49.18813" lon="6.68064">
        <ele>159.76</ele>
        <time>2018-02-11T08:20:42.000Z</time>
      </trkpt>
      <trkpt lat="49.18821" lon="6.68057">
        <ele>159.94</ele>
        <time>2018-02-11T08:20:52.000Z</time>
      </trkpt>
      <trkpt lat="49.1883" lon="6.68045">
        <ele>160.11</ele>
        <time>2018-02-11T08:21:02.000Z</time>
      </trkpt>
      <trkpt lat="49.18841" lon="6.68029">
        <ele>162.21</ele>
        <time>2018-02-11T08:21:12.000Z</time>
      </trkpt>
      <trkpt lat="49.18852" lon="6.6802">
        <ele>160.98</ele>
        <time>2018-02-11T08:21:22.000Z</time>
      </trkpt>
      <trkpt lat="49.18863" lon="6.68013">
        <ele>161</ele>
        <time>2018-02-11T08:21:32.000Z</time>
      </trkpt>
      <trkpt lat="49.18874" lon="6.68005">
        <ele>161.21</ele>
        <time>2018-02-11T08:21:42.000Z</time>
      </trkpt>
      <trkpt lat="49.18884" lon="6.67992">
        <ele>162.13</ele>
        <time>2018-02-11T08:21:52.000Z</time>
      </trkpt>
      <trkpt lat="49.18892" lon="6.67983">
        <ele>160.31</ele>
        <time>2018-02-11T08:22:02.000Z</time>
      </trkpt>
      <trkpt lat="49.189" lon="6.67971">
        <ele>161</ele>
        <time>2018-02-11T08:22:12.000Z</time>
      </trkpt>
      <trkpt lat="49.1891" lon="6.6796">
        <ele>160.09</ele>
        <time>2018-02-11T08:22:22.000Z</time>
      </trkpt>
      <trkpt lat="49.18919" lon="6.67949">
        <ele>159.2</ele>
        <time>2018-02-11T08:22:32.000Z</time>
      </trkpt>
      <trkpt lat="49.1893" lon="6.6794">
        <ele>161.14</ele>
        <time>2018-02-11T08:22:42.000Z</time>
      </trkpt>
      <trkpt lat="49.18938" lon="6.67932">
        <ele>161.8</ele>
        <time>2018-02-11T08:22:52.000Z</time>
      </trkpt>
      <trkpt lat="49.18948" lon="6.67923">
        <ele>161.88</ele>
        <time>2018-02-11T08:23:02.000Z</time>
      </trkpt>
      <trkpt lat="49.18954" lon="6.67917">
        <ele>161.73</ele>
        <time>2018-02-11T08:23:12.000Z</time>
      </trkpt>
      <trkpt lat="49.18964" lon="6.67911">
        <ele>160.42</ele>
        <time>2018-02-11T08:23:22.000Z</time>
      </trkpt>
      <trkpt lat="49.18975" lon="6.67906">
        <ele>159.65</ele>
        <time>2018-02-11T08:23:32.000Z</time>
      </trkpt>
      <trkpt lat="49.18987" lon="6.67905">
        <ele>156.04</ele>
        <time>2018-02-11T08:23:42.000Z</time>
      </trkpt>
      <trkpt lat="49.19" lon="6.67902">
        <ele>155.31</ele>
        <time>2018-02-11T08:23:52.000Z</time>
      </trkpt>
      <trkpt lat="49.19009" lon="6.67899">
        <ele>154.12</ele>
        <time>2018-02-11T08:24:02.000Z</time>
      </trkpt>
      <trkpt lat="49.19019" lon="6.67896">
        <ele>154.43</ele>
        <time>2018-02-11T08:24:12.000Z</time>
      </trkpt>
      <trkpt lat="49.19029" lon="6.679">
        <ele>155.98</ele>
        <time>2018-02-11T08:24:22.000Z</time>
      </trkpt>
      <trkpt lat="49.19037" lon="6.67905">
        <ele>155.6</ele>
        <time>2018-02-11T08:24:32.000Z</time>
      </trkpt>
      <trkpt lat="49.19049" lon="6.67911">
        <ele>158.84</ele>
        <time>2018-02-11T08:24:42.000Z</time>
      </trkpt>
      <trkpt lat="49.1906" lon="6.67918">
        <ele>159.45</ele>
        <time>2018-02-11T08:24:52.000Z</time>
      </trkpt>
      <trkpt lat="49.19068" lon="6.67924">
        <ele>158.82</ele>
        <time>2018-02-11T08:25:02.000Z</time>
      </trkpt>
      <trkpt lat="49.19074" lon="6.67932">
        <ele>156.36</ele>
        <time>2018-02-11T08:25:12.000Z</time>
      </trkpt>
      <trkpt lat="49.19084" lon="6.67942">
        <ele>157.29</ele>
        <time>2018-02-11T08:25:22.000Z</time>
      </trkpt>
      <trkpt lat="49.19095" lon="6.6795">
        <ele>156.18</ele>
        <time>2018-02-11T08:25:32.000Z</time>
      </trkpt>
      <trkpt lat="49.19108" lon="6.67952">
        <ele>158.1</ele>
        <time>2018-02-11T08:25:42.000Z</time>
      </trkpt>
      <trkpt lat="49.19113" lon="6.67954">
        <ele>159.51</ele>
        <time>2018-02-11T08:25:55.000Z</time>
      </trkpt>
      <trkpt lat="49.19115" lon="6.67966">
        <ele>155.37</ele>
        <time>2018-02-11T08:26:05.000Z</time>
      </trkpt>
      <trkpt lat="49.19119" lon="6.67976">
        <ele>150.89</ele>
        <time>2018-02-11T08:26:15.000Z</time>
      </trkpt>
      <trkpt lat="49.1912" lon="6.67985">
        <ele>146.48</ele>
        <time>2018-02-11T08:26:25.000Z</time>
      </trkpt>
      <trkpt lat="49.19131" lon="6.67993">
        <ele>147.57</ele>
        <time>2018-02-11T08:26:35.000Z</time>
      </trkpt>
      <trkpt lat="49.19147" lon="6.68002">
        <ele>153.24</ele>
        <time>2018-02-11T08:26:45.000Z</time>
      </trkpt>
      <trkpt lat="49.19157" lon="6.68014">
        <ele>158.29</ele>
        <time>2018-02-11T08:26:55.000Z</time>
      </trkpt>
      <trkpt lat="49.19162" lon="6.68021">
        <ele>156.15</ele>
        <time>2018-02-11T08:27:05.000Z</time>
      </trkpt>
      <trkpt lat="49.19164" lon="6.68031">
        <ele>154.01</ele>
        <time>2018-02-11T08:27:15.000Z</time>
      </trkpt>
      <trkpt lat="49.19163" lon="6.6804">
        <ele>151.03</ele>
        <time>2018-02-11T08:27:25.000Z</time>
      </trkpt>
      <trkpt lat="49.19159" lon="6.68049">
        <ele>148.35</ele>
        <time>2018-02-11T08:27:35.000Z</time>
      </trkpt>
      <trkpt lat="49.19155" lon="6.68057">
        <ele>148.48</ele>
        <time>2018-02-11T08:27:45.000Z</time>
      </trkpt>
      <trkpt lat="49.19152" lon="6.68065">
        <ele>147.77</ele>
        <time>2018-02-11T08:27:55.000Z</time>
      </trkpt>
      <trkpt lat="49.19148" lon="6.68072">
        <ele>146.09</ele>
        <time>2018-02-11T08:28:05.000Z</time>
      </trkpt>
      <trkpt lat="49.19142" lon="6.68079">
        <ele>143.56</ele>
        <time>2018-02-11T08:28:15.000Z</time>
      </trkpt>
      <trkpt lat="49.19128" lon="6.68102">
        <ele>154.63</ele>
        <time>2018-02-11T08:28:25.000Z</time>
      </trkpt>
      <trkpt lat="49.19118" lon="6.68118">
        <ele>159.83</ele>
        <time>2018-02-11T08:28:35.000Z</time>
      </trkpt>
      <trkpt lat="49.19109" lon="6.68128">
        <ele>159.64</ele>
        <time>2018-02-11T08:28:45.000Z</time>
      </trkpt>
      <trkpt lat="49.19103" lon="6.68134">
        <ele>156.06</ele>
        <time>2018-02-11T08:28:55.000Z</time>
      </trkpt>
      <trkpt lat="49.19094" lon="6.68141">
        <ele>154.95</ele>
        <time>2018-02-11T08:29:05.000Z</time>
      </trkpt>
      <trkpt lat="49.19083" lon="6.68152">
        <ele>155.87</ele>
        <time>2018-02-11T08:29:15.000Z</time>
      </trkpt>
      <trkpt lat="49.19074" lon="6.68159">
        <ele>154.24</ele>
        <time>2018-02-11T08:29:25.000Z</time>
      </trkpt>
      <trkpt lat="49.19063" lon="6.68168">
        <ele>153.64</ele>
        <time>2018-02-11T08:29:35.000Z</time>
      </trkpt>
      <trkpt lat="49.19055" lon="6.6817">
        <ele>153.66</ele>
        <time>2018-02-11T08:29:45.000Z</time>
      </trkpt>
      <trkpt lat="49.19046" lon="6.68177">
        <ele>155.93</ele>
        <time>2018-02-11T08:29:55.000Z</time>
      </trkpt>
      <trkpt lat="49.19033" lon="6.68202">
        <ele>170.41</ele>
        <time>2018-02-11T08:30:05.000Z</time>
      </trkpt>
      <trkpt lat="49.19023" lon="6.6821">
        <ele>173.55</ele>
        <time>2018-02-11T08:30:15.000Z</time>
      </trkpt>
      <trkpt lat="49.19012" lon="6.68212">
        <ele>172.05</ele>
        <time>2018-02-11T08:30:25.000Z</time>
      </trkpt>
      <trkpt lat="49.19001" lon="6.68213">
        <ele>170.09</ele>
        <time>2018-02-11T08:30:35.000Z</time>
      </trkpt>
      <trkpt lat="49.1899" lon="6.68215">
        <ele>166.36</ele>
        <time>2018-02-11T08:30:45.000Z</time>
      </trkpt>
      <trkpt lat="49.18984" lon="6.68219">
        <ele>163.5</ele>
        <time>2018-02-11T08:30:55.000Z</time>
      </trkpt>
      <trkpt lat="49.18984" lon="6.68228">
        <ele>163.55</ele>
        <time>2018-02-11T08:31:05.000Z</time>
      </trkpt>
      <trkpt lat="49.18989" lon="6.68234">
        <ele>161.59</ele>
        <time>2018-02-11T08:31:15.000Z</time>
      </trkpt>
      <trkpt lat="49.18992" lon="6.68244">
        <ele>165.21</ele>
        <time>2018-02-11T08:32:20.000Z</time>
      </trkpt>
      <trkpt lat="49.18986" lon="6.68242">
        <ele>163.86</ele>
        <time>2018-02-11T08:32:30.000Z</time>
      </trkpt>
      <trkpt lat="49.18976" lon="6.68248">
        <ele>160.93</ele>
        <time>2018-02-11T08:32:40.000Z</time>
      </trkpt>
      <trkpt lat="49.18961" lon="6.68268">
        <ele>166.61</ele>
        <time>2018-02-11T08:32:50.000Z</time>
      </trkpt>
      <trkpt lat="49.18949" lon="6.68277">
        <ele>157.97</ele>
        <time>2018-02-11T08:33:00.000Z</time>
      </trkpt>
      <trkpt lat="49.18941" lon="6.68278">
        <ele>156.3</ele>
        <time>2018-02-11T08:33:10.000Z</time>
      </trkpt>
      <trkpt lat="49.18934" lon="6.68278">
        <ele>156.97</ele>
        <time>2018-02-11T08:33:20.000Z</time>
      </trkpt>
      <trkpt lat="49.18926" lon="6.68281">
        <ele>162.92</ele>
        <time>2018-02-11T08:33:30.000Z</time>
      </trkpt>
      <trkpt lat="49.18913" lon="6.68286">
        <ele>165.49</ele>
        <time>2018-02-11T08:33:40.000Z</time>
      </trkpt>
      <trkpt lat="49.18902" lon="6.68287">
        <ele>167.54</ele>
        <time>2018-02-11T08:33:50.000Z</time>
      </trkpt>
      <trkpt lat="49.18893" lon="6.68288">
        <ele>168.33</ele>
        <time>2018-02-11T08:34:00.000Z</time>
      </trkpt>
      <trkpt lat="49.18883" lon="6.68298">
        <ele>167.51</ele>
        <time>2018-02-11T08:34:10.000Z</time>
      </trkpt>
      <trkpt lat="49.18877" lon="6.68302">
        <ele>170.65</ele>
        <time>2018-02-11T08:34:20.000Z</time>
      </trkpt>
      <trkpt lat="49.18869" lon="6.68301">
        <ele>168.74</ele>
        <time>2018-02-11T08:34:30.000Z</time>
      </trkpt>
      <trkpt lat="49.18858" lon="6.68298">
        <ele>166.31</ele>
        <time>2018-02-11T08:34:40.000Z</time>
      </trkpt>
      <trkpt lat="49.18847" lon="6.68302">
        <ele>163.09</ele>
        <time>2018-02-11T08:34:50.000Z</time>
      </trkpt>
      <trkpt lat="49.18838" lon="6.68309">
        <ele>162.55</ele>
        <time>2018-02-11T08:35:00.000Z</time>
      </trkpt>
      <trkpt lat="49.18829" lon="6.68312">
        <ele>162.78</ele>
        <time>2018-02-11T08:35:10.000Z</time>
      </trkpt>
      <trkpt lat="49.18818" lon="6.68314">
        <ele>163.37</ele>
        <time>2018-02-11T08:35:20.000Z</time>
      </trkpt>
      <trkpt lat="49.18805" lon="6.68319">
        <ele>164.47</ele>
        <time>2018-02-11T08:35:30.000Z</time>
      </trkpt>
      <trkpt lat="49.18791" lon="6.6833">
        <ele>168.92</ele>
        <time>2018-02-11T08:35:40.000Z</time>
      </trkpt>
      <trkpt lat="49.18778" lon="6.6833">
        <ele>167.2</ele>
        <time>2018-02-11T08:35:50.000Z</time>
      </trkpt>
      <trkpt lat="49.18769" lon="6.68332">
        <ele>169.94</ele>
        <time>2018-02-11T08:36:00.000Z</time>
      </trkpt>
      <trkpt lat="49.18759" lon="6.68338">
        <ele>171.99</ele>
        <time>2018-02-11T08:36:10.000Z</time>
      </trkpt>
      <trkpt lat="49.1875" lon="6.68338">
        <ele>172.53</ele>
        <time>2018-02-11T08:36:20.000Z</time>
      </trkpt>
      <trkpt lat="49.18741" lon="6.68341">
        <ele>171.09</ele>
        <time>2018-02-11T08:36:30.000Z</time>
      </trkpt>
      <trkpt lat="49.18728" lon="6.68345">
        <ele>171.44</ele>
        <time>2018-02-11T08:36:40.000Z</time>
      </trkpt>
      <trkpt lat="49.18715" lon="6.68345">
        <ele>164.26</ele>
        <time>2018-02-11T08:36:50.000Z</time>
      </trkpt>
      <trkpt lat="49.18706" lon="6.68346">
        <ele>158.74</ele>
        <time>2018-02-11T08:37:00.000Z</time>
      </trkpt>
      <trkpt lat="49.18694" lon="6.68354">
        <ele>159.67</ele>
        <time>2018-02-11T08:37:10.000Z</time>
      </trkpt>
      <trkpt lat="49.18684" lon="6.68357">
        <ele>157.89</ele>
        <time>2018-02-11T08:37:20.000Z</time>
      </trkpt>
      <trkpt lat="49.18672" lon="6.6836">
        <ele>159.27</ele>
        <time>2018-02-11T08:37:30.000Z</time>
      </trkpt>
      <trkpt lat="49.18662" lon="6.68362">
        <ele>158.22</ele>
        <time>2018-02-11T08:37:40.000Z</time>
      </trkpt>
      <trkpt lat="49.18655" lon="6.68366">
        <ele>154.06</ele>
        <time>2018-02-11T08:37:50.000Z</time>
      </trkpt>
      <trkpt lat="49.1865" lon="6.68378">
        <ele>151.68</ele>
        <time>2018-02-11T08:38:06.000Z</time>
      </trkpt>
      <trkpt lat="49.18644" lon="6.68393">
        <ele>158.57</ele>
        <time>2018-02-11T08:38:16.000Z</time>
      </trkpt>
      <trkpt lat="49.18634" lon="6.68402">
        <ele>161.03</ele>
        <time>2018-02-11T08:38:26.000Z</time>
      </trkpt>
      <trkpt lat="49.18621" lon="6.68411">
        <ele>164.12</ele>
        <time>2018-02-11T08:38:36.000Z</time>
      </trkpt>
      <trkpt lat="49.18612" lon="6.68414">
        <ele>165.08</ele>
        <time>2018-02-11T08:38:46.000Z</time>
      </trkpt>
      <trkpt lat="49.18603" lon="6.68416">
        <ele>162.42</ele>
        <time>2018-02-11T08:38:56.000Z</time>
      </trkpt>
      <trkpt lat="49.18596" lon="6.68417">
        <ele>162.57</ele>
        <time>2018-02-11T08:39:06.000Z</time>
      </trkpt>
      <trkpt lat="49.18587" lon="6.6842">
        <ele>164.43</ele>
        <time>2018-02-11T08:39:16.000Z</time>
      </trkpt>
      <trkpt lat="49.18572" lon="6.68417">
        <ele>168.54</ele>
        <time>2018-02-11T08:39:26.000Z</time>
      </trkpt>
      <trkpt lat="49.18561" lon="6.68418">
        <ele>169.72</ele>
        <time>2018-02-11T08:39:36.000Z</time>
      </trkpt>
      <trkpt lat="49.1855" lon="6.68417">
        <ele>167.22</ele>
        <time>2018-02-11T08:39:46.000Z</time>
      </trkpt>
      <trkpt lat="49.18539" lon="6.68419">
        <ele>166.93</ele>
        <time>2018-02-11T08:39:56.000Z</time>
      </trkpt>
      <trkpt lat="49.1853" lon="6.68424">
        <ele>168.61</ele>
        <time>2018-02-11T08:40:06.000Z</time>
      </trkpt>
      <trkpt lat="49.1852" lon="6.68423">
        <ele>166.75</ele>
        <time>2018-02-11T08:40:16.000Z</time>
      </trkpt>
      <trkpt lat="49.18508" lon="6.68424">
        <ele>163.67</ele>
        <time>2018-02-11T08:40:26.000Z</time>
      </trkpt>
      <trkpt lat="49.18496" lon="6.68426">
        <ele>163.53</ele>
        <time>2018-02-11T08:40:36.000Z</time>
      </trkpt>
      <trkpt lat="49.18485" lon="6.68431">
        <ele>162.87</ele>
        <time>2018-02-11T08:40:46.000Z</time>
      </trkpt>
      <trkpt lat="49.18472" lon="6.68437">
        <ele>163.36</ele>
        <time>2018-02-11T08:40:56.000Z</time>
      </trkpt>
      <trkpt lat="49.18461" lon="6.68443">
        <ele>166.98</ele>
        <time>2018-02-11T08:41:06.000Z</time>
      </trkpt>
      <trkpt lat="49.18454" lon="6.68449">
        <ele>170.53</ele>
        <time>2018-02-11T08:41:16.000Z</time>
      </trkpt>
      <trkpt lat="49.18447" lon="6.68443">
        <ele>167.59</ele>
        <time>2018-02-11T08:41:26.000Z</time>
      </trkpt>
      <trkpt lat="49.1844" lon="6.68444">
        <ele>165.5</ele>
        <time>2018-02-11T08:41:36.000Z</time>
      </trkpt>
      <trkpt lat="49.18429" lon="6.68447">
        <ele>169.3</ele>
        <time>2018-02-11T08:41:46.000Z</time>
      </trkpt>
      <trkpt lat="49.18418" lon="6.68451">
        <ele>168.71</ele>
        <time>2018-02-11T08:41:56.000Z</time>
      </trkpt>
      <trkpt lat="49.18407" lon="6.68451">
        <ele>169.49</ele>
        <time>2018-02-11T08:42:06.000Z</time>
      </trkpt>
      <trkpt lat="49.18399" lon="6.68452">
        <ele>169.93</ele>
        <time>2018-02-11T08:42:16.000Z</time>
      </trkpt>
      <trkpt lat="49.1839" lon="6.68455">
        <ele>169.58</ele>
        <time>2018-02-11T08:42:26.000Z</time>
      </trkpt>
      <trkpt lat="49.18382" lon="6.68459">
        <ele>170.32</ele>
        <time>2018-02-11T08:42:36.000Z</time>
      </trkpt>
      <trkpt lat="49.1837" lon="6.68459">
        <ele>171.82</ele>
        <time>2018-02-11T08:42:46.000Z</time>
      </trkpt>
      <trkpt lat="49.18359" lon="6.68463">
        <ele>176.1</ele>
        <time>2018-02-11T08:42:56.000Z</time>
      </trkpt>
      <trkpt lat="49.18347" lon="6.68464">
        <ele>177.14</ele>
        <time>2018-02-11T08:43:06.000Z</time>
      </trkpt>
      <trkpt lat="49.18336" lon="6.68465">
        <ele>176.12</ele>
        <time>2018-02-11T08:43:16.000Z</time>
      </trkpt>
      <trkpt lat="49.18325" lon="6.68464">
        <ele>174.56</ele>
        <time>2018-02-11T08:43:26.000Z</time>
      </trkpt>
      <trkpt lat="49.18315" lon="6.68465">
        <ele>172.59</ele>
        <time>2018-02-11T08:43:36.000Z</time>
      </trkpt>
      <trkpt lat="49.18303" lon="6.68465">
        <ele>172.17</ele>
        <time>2018-02-11T08:43:46.000Z</time>
      </trkpt>
      <trkpt lat="49.18295" lon="6.68466">
        <ele>173.61</ele>
        <time>2018-02-11T08:43:56.000Z</time>
      </trkpt>
      <trkpt lat="49.18285" lon="6.68467">
        <ele>174.55</ele>
        <time>2018-02-11T08:44:06.000Z</time>
      </trkpt>
      <trkpt lat="49.18279" lon="6.6847">
        <ele>174.21</ele>
        <time>2018-02-11T08:44:16.000Z</time>
      </trkpt>
      <trkpt lat="49.18269" lon="6.68471">
        <ele>173.24</ele>
        <time>2018-02-11T08:44:26.000Z</time>
      </trkpt>
      <trkpt lat="49.18267" lon="6.68472">
        <ele>172</ele>
        <time>2018-02-11T08:44:36.000Z</time>
      </trkpt>
      <trkpt lat="49.18249" lon="6.68467">
        <ele>164.72</ele>
        <time>2018-02-11T08:44:46.000Z</time>
      </trkpt>
      <trkpt lat="49.18236" lon="6.68469">
        <ele>171.91</ele>
        <time>2018-02-11T08:44:56.000Z</time>
      </trkpt>
      <trkpt lat="49.18225" lon="6.68471">
        <ele>170.74</ele>
        <time>2018-02-11T08:45:06.000Z</time>
      </trkpt>
      <trkpt lat="49.18217" lon="6.68472">
        <ele>169.09</ele>
        <time>2018-02-11T08:45:16.000Z</time>
      </trkpt>
      <trkpt lat="49.18204" lon="6.68474">
        <ele>170.96</ele>
        <time>2018-02-11T08:45:26.000Z</time>
      </trkpt>
      <trkpt lat="49.18192" lon="6.68477">
        <ele>175.17</ele>
        <time>2018-02-11T08:45:36.000Z</time>
      </trkpt>
      <trkpt lat="49.18181" lon="6.68477">
        <ele>173.1</ele>
        <time>2018-02-11T08:45:46.000Z</time>
      </trkpt>
      <trkpt lat="49.18169" lon="6.68482">
        <ele>170.56</ele>
        <time>2018-02-11T08:45:56.000Z</time>
      </trkpt>
      <trkpt lat="49.18159" lon="6.68487">
        <ele>174.67</ele>
        <time>2018-02-11T08:46:06.000Z</time>
      </trkpt>
      <trkpt lat="49.18148" lon="6.68485">
        <ele>178.18</ele>
        <time>2018-02-11T08:46:16.000Z</time>
      </trkpt>
      <trkpt lat="49.18137" lon="6.68484">
        <ele>178.02</ele>
        <time>2018-02-11T08:46:26.000Z</time>
      </trkpt>
      <trkpt lat="49.18127" lon="6.68486">
        <ele>174.36</ele>
        <time>2018-02-11T08:46:36.000Z</time>
      </trkpt>
      <trkpt lat="49.18121" lon="6.68487">
        <ele>172.5</ele>
        <time>2018-02-11T08:46:46.000Z</time>
      </trkpt>
      <trkpt lat="49.18112" lon="6.68487">
        <ele>168.82</ele>
        <time>2018-02-11T08:46:56.000Z</time>
      </trkpt>
      <trkpt lat="49.181" lon="6.68483">
        <ele>167.92</ele>
        <time>2018-02-11T08:47:06.000Z</time>
      </trkpt>
      <trkpt lat="49.18089" lon="6.68485">
        <ele>167.95</ele>
        <time>2018-02-11T08:47:16.000Z</time>
      </trkpt>
      <trkpt lat="49.18078" lon="6.68484">
        <ele>166.62</ele>
        <time>2018-02-11T08:47:26.000Z</time>
      </trkpt>
      <trkpt lat="49.18067" lon="6.68487">
        <ele>169.47</ele>
        <time>2018-02-11T08:47:36.000Z</time>
      </trkpt>
      <trkpt lat="49.18066" lon="6.68488">
        <ele>169.8</ele>
        <time>2018-02-11T08:47:46.000Z</time>
      </trkpt>
      <trkpt lat="49.18058" lon="6.68487">
        <ele>170.48</ele>
        <time>2018-02-11T08:47:56.000Z</time>
      </trkpt>
      <trkpt lat="49.18045" lon="6.68491">
        <ele>175.73</ele>
        <time>2018-02-11T08:48:06.000Z</time>
      </trkpt>
      <trkpt lat="49.18037" lon="6.6849">
        <ele>179.45</ele>
        <time>2018-02-11T08:48:16.000Z</time>
      </trkpt>
      <trkpt lat="49.18028" lon="6.68488">
        <ele>181.02</ele>
        <time>2018-02-11T08:48:26.000Z</time>
      </trkpt>
      <trkpt lat="49.1802" lon="6.6849">
        <ele>178.41</ele>
        <time>2018-02-11T08:48:36.000Z</time>
      </trkpt>
      <trkpt lat="49.18012" lon="6.68487">
        <ele>174.96</ele>
        <time>2018-02-11T08:48:46.000Z</time>
      </trkpt>
      <trkpt lat="49.18001" lon="6.68486">
        <ele>176.2</ele>
        <time>2018-02-11T08:48:56.000Z</time>
      </trkpt>
      <trkpt lat="49.17992" lon="6.68481">
        <ele>178.13</ele>
        <time>2018-02-11T08:49:06.000Z</time>
      </trkpt>
      <trkpt lat="49.17987" lon="6.6848">
        <ele>181.35</ele>
        <time>2018-02-11T08:49:16.000Z</time>
      </trkpt>
      <trkpt lat="49.17981" lon="6.68471">
        <ele>179.68</ele>
        <time>2018-02-11T08:49:26.000Z</time>
      </trkpt>
      <trkpt lat="49.17975" lon="6.68469">
        <ele>179.2</ele>
        <time>2018-02-11T08:49:36.000Z</time>
      </trkpt>
      <trkpt lat="49.17964" lon="6.68469">
        <ele>177.37</ele>
        <time>2018-02-11T08:49:46.000Z</time>
      </trkpt>
      <trkpt lat="49.17954" lon="6.68471">
        <ele>175.2</ele>
        <time>2018-02-11T08:49:56.000Z</time>
      </trkpt>
      <trkpt lat="49.17945" lon="6.6847">
        <ele>174.45</ele>
        <time>2018-02-11T08:50:06.000Z</time>
      </trkpt>
      <trkpt lat="49.17936" lon="6.68465">
        <ele>174.69</ele>
        <time>2018-02-11T08:50:16.000Z</time>
      </trkpt>
      <trkpt lat="49.17927" lon="6.68463">
        <ele>175.6</ele>
        <time>2018-02-11T08:50:26.000Z</time>
      </trkpt>
      <trkpt lat="49.17918" lon="6.68467">
        <ele>176.32</ele>
        <time>2018-02-11T08:50:36.000Z</time>
      </trkpt>
      <trkpt lat="49.17915" lon="6.68471">
        <ele>178.86</ele>
        <time>2018-02-11T08:50:46.000Z</time>
      </trkpt>
      <trkpt lat="49.17916" lon="6.68479">
        <ele>178.81</ele>
        <time>2018-02-11T08:50:56.000Z</time>
      </trkpt>
      <trkpt lat="49.17913" lon="6.68495">
        <ele>180.17</ele>
        <time>2018-02-11T08:51:06.000Z</time>
      </trkpt>
      <trkpt lat="49.17911" lon="6.68502">
        <ele>180.7</ele>
        <time>2018-02-11T08:51:16.000Z</time>
      </trkpt>
      <trkpt lat="49.17911" lon="6.68509">
        <ele>181.75</ele>
        <time>2018-02-11T08:51:26.000Z</time>
      </trkpt>
      <trkpt lat="49.17909" lon="6.68521">
        <ele>178.94</ele>
        <time>2018-02-11T08:51:36.000Z</time>
      </trkpt>
      <trkpt lat="49.17914" lon="6.68532">
        <ele>178.46</ele>
        <time>2018-02-11T08:51:46.000Z</time>
      </trkpt>
      <trkpt lat="49.17924" lon="6.68544">
        <ele>176.26</ele>
        <time>2018-02-11T08:51:56.000Z</time>
      </trkpt>
      <trkpt lat="49.17934" lon="6.68556">
        <ele>173.6</ele>
        <time>2018-02-11T08:52:06.000Z</time>
      </trkpt>
      <trkpt lat="49.17944" lon="6.68571">
        <ele>175.79</ele>
        <time>2018-02-11T08:52:16.000Z</time>
      </trkpt>
      <trkpt lat="49.17954" lon="6.6858">
        <ele>163.99</ele>
        <time>2018-02-11T08:52:26.000Z</time>
      </trkpt>
      <trkpt lat="49.17959" lon="6.68598">
        <ele>167.87</ele>
        <time>2018-02-11T08:52:36.000Z</time>
      </trkpt>
      <trkpt lat="49.17962" lon="6.6862">
        <ele>173.09</ele>
        <time>2018-02-11T08:52:46.000Z</time>
      </trkpt>
      <trkpt lat="49.17969" lon="6.68636">
        <ele>174.4</ele>
        <time>2018-02-11T08:52:56.000Z</time>
      </trkpt>
      <trkpt lat="49.17976" lon="6.68652">
        <ele>173.71</ele>
        <time>2018-02-11T08:53:06.000Z</time>
      </trkpt>
      <trkpt lat="49.17987" lon="6.68664">
        <ele>176.12</ele>
        <time>2018-02-11T08:53:16.000Z</time>
      </trkpt>
      <trkpt lat="49.17992" lon="6.6868">
        <ele>175.49</ele>
        <time>2018-02-11T08:53:26.000Z</time>
      </trkpt>
      <trkpt lat="49.17999" lon="6.68691">
        <ele>177.06</ele>
        <time>2018-02-11T08:53:36.000Z</time>
      </trkpt>
      <trkpt lat="49.18008" lon="6.68699">
        <ele>177.74</ele>
        <time>2018-02-11T08:53:46.000Z</time>
      </trkpt>
      <trkpt lat="49.18016" lon="6.68709">
        <ele>177.11</ele>
        <time>2018-02-11T08:53:56.000Z</time>
      </trkpt>
      <trkpt lat="49.18019" lon="6.68724">
        <ele>175.83</ele>
        <time>2018-02-11T08:54:06.000Z</time>
      </trkpt>
      <trkpt lat="49.18026" lon="6.68742">
        <ele>174.51</ele>
        <time>2018-02-11T08:54:16.000Z</time>
      </trkpt>
      <trkpt lat="49.18035" lon="6.68754">
        <ele>173.23</ele>
        <time>2018-02-11T08:54:26.000Z</time>
      </trkpt>
      <trkpt lat="49.1804" lon="6.68765">
        <ele>171.69</ele>
        <time>2018-02-11T08:54:36.000Z</time>
      </trkpt>
      <trkpt lat="49.18058" lon="6.68776">
        <ele>177.94</ele>
        <time>2018-02-11T08:54:46.000Z</time>
      </trkpt>
      <trkpt lat="49.18065" lon="6.68788">
        <ele>179.25</ele>
        <time>2018-02-11T08:54:56.000Z</time>
      </trkpt>
      <trkpt lat="49.1807" lon="6.688">
        <ele>179.77</ele>
        <time>2018-02-11T08:55:06.000Z</time>
      </trkpt>
      <trkpt lat="49.18076" lon="6.68809">
        <ele>177.55</ele>
        <time>2018-02-11T08:55:16.000Z</time>
      </trkpt>
      <trkpt lat="49.18076" lon="6.68822">
        <ele>169.13</ele>
        <time>2018-02-11T08:55:26.000Z</time>
      </trkpt>
      <trkpt lat="49.1809" lon="6.68842">
        <ele>173.75</ele>
        <time>2018-02-11T08:55:36.000Z</time>
      </trkpt>
      <trkpt lat="49.181" lon="6.68858">
        <ele>176.04</ele>
        <time>2018-02-11T08:55:46.000Z</time>
      </trkpt>
      <trkpt lat="49.18106" lon="6.68877">
        <ele>179.55</ele>
        <time>2018-02-11T08:55:56.000Z</time>
      </trkpt>
      <trkpt lat="49.181" lon="6.68894">
        <ele>182</ele>
        <time>2018-02-11T08:56:06.000Z</time>
      </trkpt>
      <trkpt lat="49.1809" lon="6.68902">
        <ele>181.12</ele>
        <time>2018-02-11T08:56:16.000Z</time>
      </trkpt>
      <trkpt lat="49.18082" lon="6.68904">
        <ele>179.79</ele>
        <time>2018-02-11T08:56:26.000Z</time>
      </trkpt>
      <trkpt lat="49.18073" lon="6.68906">
        <ele>180.25</ele>
        <time>2018-02-11T08:56:36.000Z</time>
      </trkpt>
      <trkpt lat="49.18059" lon="6.68908">
        <ele>179.36</ele>
        <time>2018-02-11T08:56:46.000Z</time>
      </trkpt>
      <trkpt lat="49.18049" lon="6.6891">
        <ele>179.62</ele>
        <time>2018-02-11T08:56:56.000Z</time>
      </trkpt>
      <trkpt lat="49.18038" lon="6.68918">
        <ele>182.88</ele>
        <time>2018-02-11T08:57:06.000Z</time>
      </trkpt>
      <trkpt lat="49.18027" lon="6.68924">
        <ele>185.12</ele>
        <time>2018-02-11T08:57:16.000Z</time>
      </trkpt>
      <trkpt lat="49.18017" lon="6.68928">
        <ele>186.24</ele>
        <time>2018-02-11T08:57:26.000Z</time>
      </trkpt>
      <trkpt lat="49.18007" lon="6.68933">
        <ele>190.01</ele>
        <time>2018-02-11T08:57:36.000Z</time>
      </trkpt>
      <trkpt lat="49.18006" lon="6.68934">
        <ele>190.8</ele>
        <time>2018-02-11T08:57:46.000Z</time>
      </trkpt>
      <trkpt lat="49.17994" lon="6.68945">
        <ele>191</ele>
        <time>2018-02-11T08:57:56.000Z</time>
      </trkpt>
      <trkpt lat="49.17981" lon="6.68934">
        <ele>190.96</ele>
        <time>2018-02-11T08:58:06.000Z</time>
      </trkpt>
      <trkpt lat="49.17975" lon="6.68938">
        <ele>189.71</ele>
        <time>2018-02-11T08:58:16.000Z</time>
      </trkpt>
      <trkpt lat="49.17965" lon="6.68949">
        <ele>184.64</ele>
        <time>2018-02-11T08:58:26.000Z</time>
      </trkpt>
      <trkpt lat="49.17953" lon="6.68959">
        <ele>184.23</ele>
        <time>2018-02-11T08:58:36.000Z</time>
      </trkpt>
      <trkpt lat="49.1794" lon="6.68964">
        <ele>188.01</ele>
        <time>2018-02-11T08:58:46.000Z</time>
      </trkpt>
      <trkpt lat="49.17929" lon="6.68967">
        <ele>188.17</ele>
        <time>2018-02-11T08:58:56.000Z</time>
      </trkpt>
      <trkpt lat="49.17917" lon="6.68971">
        <ele>189.51</ele>
        <time>2018-02-11T08:59:06.000Z</time>
      </trkpt>
      <trkpt lat="49.17905" lon="6.68979">
        <ele>192.21</ele>
        <time>2018-02-11T08:59:16.000Z</time>
      </trkpt>
      <trkpt lat="49.17894" lon="6.68985">
        <ele>193.63</ele>
        <time>2018-02-11T08:59:26.000Z</time>
      </trkpt>
      <trkpt lat="49.17883" lon="6.6899">
        <ele>193.81</ele>
        <time>2018-02-11T08:59:36.000Z</time>
      </trkpt>
      <trkpt lat="49.17872" lon="6.68999">
        <ele>194.54</ele>
        <time>2018-02-11T08:59:46.000Z</time>
      </trkpt>
      <trkpt lat="49.1786" lon="6.69002">
        <ele>199.21</ele>
        <time>2018-02-11T08:59:56.000Z</time>
      </trkpt>
      <trkpt lat="49.17849" lon="6.69004">
        <ele>200.92</ele>
        <time>2018-02-11T09:00:06.000Z</time>
      </trkpt>
      <trkpt lat="49.1784" lon="6.69012">
        <ele>199.51</ele>
        <time>2018-02-11T09:00:16.000Z</time>
      </trkpt>
      <trkpt lat="49.1783" lon="6.69017">
        <ele>202.54</ele>
        <time>2018-02-11T09:00:26.000Z</time>
      </trkpt>
      <trkpt lat="49.17818" lon="6.69022">
        <ele>207.48</ele>
        <time>2018-02-11T09:00:36.000Z</time>
      </trkpt>
      <trkpt lat="49.17805" lon="6.69029">
        <ele>204.63</ele>
        <time>2018-02-11T09:00:46.000Z</time>
      </trkpt>
      <trkpt lat="49.17798" lon="6.69035">
        <ele>202.01</ele>
        <time>2018-02-11T09:00:56.000Z</time>
      </trkpt>
      <trkpt lat="49.17787" lon="6.69035">
        <ele>199.56</ele>
        <time>2018-02-11T09:01:06.000Z</time>
      </trkpt>
      <trkpt lat="49.17775" lon="6.69043">
        <ele>198.93</ele>
        <time>2018-02-11T09:01:16.000Z</time>
      </trkpt>
      <trkpt lat="49.17763" lon="6.6905">
        <ele>199.85</ele>
        <time>2018-02-11T09:01:26.000Z</time>
      </trkpt>
      <trkpt lat="49.1775" lon="6.69059">
        <ele>199.81</ele>
        <time>2018-02-11T09:01:36.000Z</time>
      </trkpt>
      <trkpt lat="49.17735" lon="6.69067">
        <ele>198.8</ele>
        <time>2018-02-11T09:01:46.000Z</time>
      </trkpt>
      <trkpt lat="49.17721" lon="6.69073">
        <ele>196.46</ele>
        <time>2018-02-11T09:01:56.000Z</time>
      </trkpt>
      <trkpt lat="49.1771" lon="6.69074">
        <ele>197.38</ele>
        <time>2018-02-11T09:02:06.000Z</time>
      </trkpt>
      <trkpt lat="49.17699" lon="6.6908">
        <ele>200.93</ele>
        <time>2018-02-11T09:02:16.000Z</time>
      </trkpt>
      <trkpt lat="49.17687" lon="6.69087">
        <ele>199.55</ele>
        <time>2018-02-11T09:02:26.000Z</time>
      </trkpt>
      <trkpt lat="49.17675" lon="6.69094">
        <ele>196.65</ele>
        <time>2018-02-11T09:02:36.000Z</time>
      </trkpt>
      <trkpt lat="49.17662" lon="6.69099">
        <ele>196.08</ele>
        <time>2018-02-11T09:02:46.000Z</time>
      </trkpt>
      <trkpt lat="49.17651" lon="6.69108">
        <ele>194.77</ele>
        <time>2018-02-11T09:02:56.000Z</time>
      </trkpt>
      <trkpt lat="49.17641" lon="6.69115">
        <ele>191.08</ele>
        <time>2018-02-11T09:03:06.000Z</time>
      </trkpt>
      <trkpt lat="49.1763" lon="6.69122">
        <ele>185.2</ele>
        <time>2018-02-11T09:03:16.000Z</time>
      </trkpt>
      <trkpt lat="49.1762" lon="6.69125">
        <ele>188.91</ele>
        <time>2018-02-11T09:03:26.000Z</time>
      </trkpt>
      <trkpt lat="49.17608" lon="6.69126">
        <ele>193.5</ele>
        <time>2018-02-11T09:03:36.000Z</time>
      </trkpt>
      <trkpt lat="49.17598" lon="6.69133">
        <ele>198.44</ele>
        <time>2018-02-11T09:03:46.000Z</time>
      </trkpt>
      <trkpt lat="49.17595" lon="6.69145">
        <ele>192.06</ele>
        <time>2018-02-11T09:03:56.000Z</time>
      </trkpt>
      <trkpt lat="49.17599" lon="6.69159">
        <ele>189.32</ele>
        <time>2018-02-11T09:04:06.000Z</time>
      </trkpt>
      <trkpt lat="49.17602" lon="6.69176">
        <ele>192.1</ele>
        <time>2018-02-11T09:04:16.000Z</time>
      </trkpt>
      <trkpt lat="49.17608" lon="6.6919">
        <ele>191.95</ele>
        <time>2018-02-11T09:04:26.000Z</time>
      </trkpt>
      <trkpt lat="49.17614" lon="6.69197">
        <ele>192.93</ele>
        <time>2018-02-11T09:04:36.000Z</time>
      </trkpt>
      <trkpt lat="49.17621" lon="6.69209">
        <ele>190.24</ele>
        <time>2018-02-11T09:04:46.000Z</time>
      </trkpt>
      <trkpt lat="49.1762" lon="6.69223">
        <ele>187.4</ele>
        <time>2018-02-11T09:04:56.000Z</time>
      </trkpt>
      <trkpt lat="49.1763" lon="6.69234">
        <ele>187.84</ele>
        <time>2018-02-11T09:05:06.000Z</time>
      </trkpt>
      <trkpt lat="49.1763" lon="6.69255">
        <ele>187.91</ele>
        <time>2018-02-11T09:05:16.000Z</time>
      </trkpt>
      <trkpt lat="49.17632" lon="6.69271">
        <ele>186.19</ele>
        <time>2018-02-11T09:05:26.000Z</time>
      </trkpt>
      <trkpt lat="49.17634" lon="6.69286">
        <ele>181.89</ele>
        <time>2018-02-11T09:05:36.000Z</time>
      </trkpt>
      <trkpt lat="49.17637" lon="6.69302">
        <ele>179.94</ele>
        <time>2018-02-11T09:05:46.000Z</time>
      </trkpt>
      <trkpt lat="49.17638" lon="6.69322">
        <ele>179.97</ele>
        <time>2018-02-11T09:05:56.000Z</time>
      </trkpt>
      <trkpt lat="49.1765" lon="6.69338">
        <ele>184.64</ele>
        <time>2018-02-11T09:06:06.000Z</time>
      </trkpt>
      <trkpt lat="49.17659" lon="6.6935">
        <ele>188.1</ele>
        <time>2018-02-11T09:06:16.000Z</time>
      </trkpt>
      <trkpt lat="49.17665" lon="6.69367">
        <ele>193.02</ele>
        <time>2018-02-11T09:06:26.000Z</time>
      </trkpt>
      <trkpt lat="49.17669" lon="6.69381">
        <ele>188.53</ele>
        <time>2018-02-11T09:06:36.000Z</time>
      </trkpt>
      <trkpt lat="49.17677" lon="6.69396">
        <ele>184.67</ele>
        <time>2018-02-11T09:06:46.000Z</time>
      </trkpt>
      <trkpt lat="49.17679" lon="6.69415">
        <ele>187.18</ele>
        <time>2018-02-11T09:06:56.000Z</time>
      </trkpt>
      <trkpt lat="49.17682" lon="6.69421">
        <ele>187.09</ele>
        <time>2018-02-11T09:07:06.000Z</time>
      </trkpt>
      <trkpt lat="49.17682" lon="6.69445">
        <ele>187.81</ele>
        <time>2018-02-11T09:07:16.000Z</time>
      </trkpt>
      <trkpt lat="49.17681" lon="6.69472">
        <ele>189.13</ele>
        <time>2018-02-11T09:07:26.000Z</time>
      </trkpt>
      <trkpt lat="49.1769" lon="6.69494">
        <ele>193.73</ele>
        <time>2018-02-11T09:07:36.000Z</time>
      </trkpt>
      <trkpt lat="49.17697" lon="6.69508">
        <ele>196.24</ele>
        <time>2018-02-11T09:07:46.000Z</time>
      </trkpt>
      <trkpt lat="49.17701" lon="6.69522">
        <ele>193.79</ele>
        <time>2018-02-11T09:07:56.000Z</time>
      </trkpt>
      <trkpt lat="49.17701" lon="6.69543">
        <ele>193.12</ele>
        <time>2018-02-11T09:08:06.000Z</time>
      </trkpt>
      <trkpt lat="49.17708" lon="6.69559">
        <ele>193.9</ele>
        <time>2018-02-11T09:08:16.000Z</time>
      </trkpt>
      <trkpt lat="49.17712" lon="6.69578">
        <ele>194.38</ele>
        <time>2018-02-11T09:08:26.000Z</time>
      </trkpt>
      <trkpt lat="49.17717" lon="6.69596">
        <ele>195.51</ele>
        <time>2018-02-11T09:08:36.000Z</time>
      </trkpt>
      <trkpt lat="49.17723" lon="6.69611">
        <ele>195.81</ele>
        <time>2018-02-11T09:08:46.000Z</time>
      </trkpt>
      <trkpt lat="49.17728" lon="6.69626">
        <ele>196.56</ele>
        <time>2018-02-11T09:08:56.000Z</time>
      </trkpt>
      <trkpt lat="49.1773" lon="6.69641">
        <ele>192.91</ele>
        <time>2018-02-11T09:09:06.000Z</time>
      </trkpt>
      <trkpt lat="49.17735" lon="6.69655">
        <ele>194.2</ele>
        <time>2018-02-11T09:09:16.000Z</time>
      </trkpt>
      <trkpt lat="49.17741" lon="6.6967">
        <ele>193.03</ele>
        <time>2018-02-11T09:09:26.000Z</time>
      </trkpt>
      <trkpt lat="49.17746" lon="6.69687">
        <ele>192.6</ele>
        <time>2018-02-11T09:09:36.000Z</time>
      </trkpt>
      <trkpt lat="49.17746" lon="6.69692">
        <ele>193.68</ele>
        <time>2018-02-11T09:09:46.000Z</time>
      </trkpt>
      <trkpt lat="49.17747" lon="6.69703">
        <ele>197.28</ele>
        <time>2018-02-11T09:10:00.000Z</time>
      </trkpt>
      <trkpt lat="49.17742" lon="6.69708">
        <ele>197.92</ele>
        <time>2018-02-11T09:10:10.000Z</time>
      </trkpt>
      <trkpt lat="49.17735" lon="6.69719">
        <ele>195.23</ele>
        <time>2018-02-11T09:10:34.000Z</time>
      </trkpt>
      <trkpt lat="49.17733" lon="6.69722">
        <ele>193.28</ele>
        <time>2018-02-11T09:10:44.000Z</time>
      </trkpt>
      <trkpt lat="49.17723" lon="6.69728">
        <ele>193.07</ele>
        <time>2018-02-11T09:10:54.000Z</time>
      </trkpt>
      <trkpt lat="49.17707" lon="6.69746">
        <ele>189.74</ele>
        <time>2018-02-11T09:11:04.000Z</time>
      </trkpt>
      <trkpt lat="49.17679" lon="6.69777">
        <ele>189</ele>
        <time>2018-02-11T09:11:14.000Z</time>
      </trkpt>
      <trkpt lat="49.17663" lon="6.69782">
        <ele>195.12</ele>
        <time>2018-02-11T09:11:24.000Z</time>
      </trkpt>
      <trkpt lat="49.17649" lon="6.69787">
        <ele>199.5</ele>
        <time>2018-02-11T09:11:34.000Z</time>
      </trkpt>
      <trkpt lat="49.17636" lon="6.69786">
        <ele>196.45</ele>
        <time>2018-02-11T09:11:44.000Z</time>
      </trkpt>
      <trkpt lat="49.17622" lon="6.69783">
        <ele>206.07</ele>
        <time>2018-02-11T09:11:54.000Z</time>
      </trkpt>
      <trkpt lat="49.1761" lon="6.69778">
        <ele>210.98</ele>
        <time>2018-02-11T09:12:04.000Z</time>
      </trkpt>
      <trkpt lat="49.17597" lon="6.69781">
        <ele>215.26</ele>
        <time>2018-02-11T09:12:14.000Z</time>
      </trkpt>
      <trkpt lat="49.17586" lon="6.69779">
        <ele>214.38</ele>
        <time>2018-02-11T09:12:24.000Z</time>
      </trkpt>
      <trkpt lat="49.17574" lon="6.6978">
        <ele>210.9</ele>
        <time>2018-02-11T09:12:34.000Z</time>
      </trkpt>
      <trkpt lat="49.17563" lon="6.69779">
        <ele>206.71</ele>
        <time>2018-02-11T09:12:44.000Z</time>
      </trkpt>
      <trkpt lat="49.17555" lon="6.69778">
        <ele>202.12</ele>
        <time>2018-02-11T09:12:54.000Z</time>
      </trkpt>
      <trkpt lat="49.17542" lon="6.69777">
        <ele>203.35</ele>
        <time>2018-02-11T09:13:04.000Z</time>
      </trkpt>
      <trkpt lat="49.17528" lon="6.69776">
        <ele>204.76</ele>
        <time>2018-02-11T09:13:14.000Z</time>
      </trkpt>
      <trkpt lat="49.17515" lon="6.69774">
        <ele>205.93</ele>
        <time>2018-02-11T09:13:24.000Z</time>
      </trkpt>
      <trkpt lat="49.17501" lon="6.69772">
        <ele>207.37</ele>
        <time>2018-02-11T09:13:34.000Z</time>
      </trkpt>
      <trkpt lat="49.17486" lon="6.69773">
        <ele>211.45</ele>
        <time>2018-02-11T09:13:44.000Z</time>
      </trkpt>
      <trkpt lat="49.17475" lon="6.6977">
        <ele>213.94</ele>
        <time>2018-02-11T09:13:54.000Z</time>
      </trkpt>
      <trkpt lat="49.17464" lon="6.69767">
        <ele>213.45</ele>
        <time>2018-02-11T09:14:04.000Z</time>
      </trkpt>
      <trkpt lat="49.17456" lon="6.69761">
        <ele>212.66</ele>
        <time>2018-02-11T09:14:14.000Z</time>
      </trkpt>
      <trkpt lat="49.17448" lon="6.69756">
        <ele>211.69</ele>
        <time>2018-02-11T09:14:24.000Z</time>
      </trkpt>
      <trkpt lat="49.17437" lon="6.69754">
        <ele>212.27</ele>
        <time>2018-02-11T09:14:34.000Z</time>
      </trkpt>
      <trkpt lat="49.17423" lon="6.6975">
        <ele>211.71</ele>
        <time>2018-02-11T09:14:44.000Z</time>
      </trkpt>
      <trkpt lat="49.17412" lon="6.69745">
        <ele>215.05</ele>
        <time>2018-02-11T09:14:54.000Z</time>
      </trkpt>
      <trkpt lat="49.17399" lon="6.69738">
        <ele>219.83</ele>
        <time>2018-02-11T09:15:04.000Z</time>
      </trkpt>
      <trkpt lat="49.17385" lon="6.69742">
        <ele>215.03</ele>
        <time>2018-02-11T09:15:14.000Z</time>
      </trkpt>
      <trkpt lat="49.17371" lon="6.69744">
        <ele>214.16</ele>
        <time>2018-02-11T09:15:24.000Z</time>
      </trkpt>
      <trkpt lat="49.17356" lon="6.69746">
        <ele>215.76</ele>
        <time>2018-02-11T09:15:34.000Z</time>
      </trkpt>
      <trkpt lat="49.17345" lon="6.69745">
        <ele>213.82</ele>
        <time>2018-02-11T09:15:44.000Z</time>
      </trkpt>
      <trkpt lat="49.17332" lon="6.69744">
        <ele>211.93</ele>
        <time>2018-02-11T09:15:54.000Z</time>
      </trkpt>
      <trkpt lat="49.17318" lon="6.69745">
        <ele>209.77</ele>
        <time>2018-02-11T09:16:04.000Z</time>
      </trkpt>
      <trkpt lat="49.17308" lon="6.69743">
        <ele>211.25</ele>
        <time>2018-02-11T09:16:14.000Z</time>
      </trkpt>
      <trkpt lat="49.17296" lon="6.6974">
        <ele>209.42</ele>
        <time>2018-02-11T09:16:24.000Z</time>
      </trkpt>
      <trkpt lat="49.17285" lon="6.6974">
        <ele>208.91</ele>
        <time>2018-02-11T09:16:34.000Z</time>
      </trkpt>
      <trkpt lat="49.17274" lon="6.6974">
        <ele>207.99</ele>
        <time>2018-02-11T09:16:44.000Z</time>
      </trkpt>
      <trkpt lat="49.17265" lon="6.6974">
        <ele>206.54</ele>
        <time>2018-02-11T09:16:54.000Z</time>
      </trkpt>
      <trkpt lat="49.17255" lon="6.69736">
        <ele>205.81</ele>
        <time>2018-02-11T09:17:04.000Z</time>
      </trkpt>
      <trkpt lat="49.17241" lon="6.69736">
        <ele>205.05</ele>
        <time>2018-02-11T09:17:14.000Z</time>
      </trkpt>
      <trkpt lat="49.17228" lon="6.69735">
        <ele>203.09</ele>
        <time>2018-02-11T09:17:24.000Z</time>
      </trkpt>
      <trkpt lat="49.17217" lon="6.69735">
        <ele>199.96</ele>
        <time>2018-02-11T09:17:34.000Z</time>
      </trkpt>
      <trkpt lat="49.17202" lon="6.69729">
        <ele>200.61</ele>
        <time>2018-02-11T09:17:44.000Z</time>
      </trkpt>
      <trkpt lat="49.17191" lon="6.6972">
        <ele>204.94</ele>
        <time>2018-02-11T09:17:54.000Z</time>
      </trkpt>
      <trkpt lat="49.1718" lon="6.69721">
        <ele>206.15</ele>
        <time>2018-02-11T09:18:04.000Z</time>
      </trkpt>
      <trkpt lat="49.17167" lon="6.69718">
        <ele>203.58</ele>
        <time>2018-02-11T09:18:14.000Z</time>
      </trkpt>
      <trkpt lat="49.17155" lon="6.69712">
        <ele>200.16</ele>
        <time>2018-02-11T09:18:24.000Z</time>
      </trkpt>
      <trkpt lat="49.1714" lon="6.69705">
        <ele>199.3</ele>
        <time>2018-02-11T09:18:34.000Z</time>
      </trkpt>
      <trkpt lat="49.17127" lon="6.69698">
        <ele>202.74</ele>
        <time>2018-02-11T09:18:44.000Z</time>
      </trkpt>
      <trkpt lat="49.17117" lon="6.6969">
        <ele>204.81</ele>
        <time>2018-02-11T09:18:54.000Z</time>
      </trkpt>
      <trkpt lat="49.17107" lon="6.69684">
        <ele>204.9</ele>
        <time>2018-02-11T09:19:04.000Z</time>
      </trkpt>
      <trkpt lat="49.17094" lon="6.69677">
        <ele>206.71</ele>
        <time>2018-02-11T09:19:14.000Z</time>
      </trkpt>
      <trkpt lat="49.17082" lon="6.69674">
        <ele>207.98</ele>
        <time>2018-02-11T09:19:24.000Z</time>
      </trkpt>
      <trkpt lat="49.17069" lon="6.69671">
        <ele>210.81</ele>
        <time>2018-02-11T09:19:34.000Z</time>
      </trkpt>
      <trkpt lat="49.17057" lon="6.69667">
        <ele>212.72</ele>
        <time>2018-02-11T09:19:44.000Z</time>
      </trkpt>
      <trkpt lat="49.17045" lon="6.69668">
        <ele>213.01</ele>
        <time>2018-02-11T09:19:54.000Z</time>
      </trkpt>
      <trkpt lat="49.17035" lon="6.69668">
        <ele>214.7</ele>
        <time>2018-02-11T09:20:04.000Z</time>
      </trkpt>
      <trkpt lat="49.17025" lon="6.69667">
        <ele>210.44</ele>
        <time>2018-02-11T09:20:14.000Z</time>
      </trkpt>
      <trkpt lat="49.17011" lon="6.69667">
        <ele>207.57</ele>
        <time>2018-02-11T09:20:24.000Z</time>
      </trkpt>
      <trkpt lat="49.16998" lon="6.69664">
        <ele>206.49</ele>
        <time>2018-02-11T09:20:34.000Z</time>
      </trkpt>
      <trkpt lat="49.16987" lon="6.69662">
        <ele>203.62</ele>
        <time>2018-02-11T09:20:44.000Z</time>
      </trkpt>
      <trkpt lat="49.16972" lon="6.69663">
        <ele>200.92</ele>
        <time>2018-02-11T09:20:54.000Z</time>
      </trkpt>
      <trkpt lat="49.16961" lon="6.69661">
        <ele>201.52</ele>
        <time>2018-02-11T09:21:04.000Z</time>
      </trkpt>
      <trkpt lat="49.16949" lon="6.69658">
        <ele>202.29</ele>
        <time>2018-02-11T09:21:14.000Z</time>
      </trkpt>
      <trkpt lat="49.16939" lon="6.69658">
        <ele>200.92</ele>
        <time>2018-02-11T09:21:24.000Z</time>
      </trkpt>
      <trkpt lat="49.16925" lon="6.69661">
        <ele>199.51</ele>
        <time>2018-02-11T09:21:34.000Z</time>
      </trkpt>
      <trkpt lat="49.16915" lon="6.69665">
        <ele>197.19</ele>
        <time>2018-02-11T09:21:44.000Z</time>
      </trkpt>
      <trkpt lat="49.169" lon="6.69662">
        <ele>198.92</ele>
        <time>2018-02-11T09:21:54.000Z</time>
      </trkpt>
      <trkpt lat="49.16888" lon="6.69661">
        <ele>197.51</ele>
        <time>2018-02-11T09:22:04.000Z</time>
      </trkpt>
      <trkpt lat="49.16874" lon="6.69656">
        <ele>204.97</ele>
        <time>2018-02-11T09:22:14.000Z</time>
      </trkpt>
      <trkpt lat="49.1686" lon="6.69652">
        <ele>198.86</ele>
        <time>2018-02-11T09:22:24.000Z</time>
      </trkpt>
      <trkpt lat="49.16848" lon="6.69649">
        <ele>195.38</ele>
        <time>2018-02-11T09:22:34.000Z</time>
      </trkpt>
      <trkpt lat="49.16835" lon="6.69643">
        <ele>192.97</ele>
        <time>2018-02-11T09:22:44.000Z</time>
      </trkpt>
      <trkpt lat="49.16825" lon="6.69641">
        <ele>192.72</ele>
        <time>2018-02-11T09:22:54.000Z</time>
      </trkpt>
      <trkpt lat="49.16816" lon="6.69635">
        <ele>194.91</ele>
        <time>2018-02-11T09:23:04.000Z</time>
      </trkpt>
      <trkpt lat="49.16807" lon="6.6963">
        <ele>195.12</ele>
        <time>2018-02-11T09:23:14.000Z</time>
      </trkpt>
      <trkpt lat="49.16797" lon="6.69627">
        <ele>189.64</ele>
        <time>2018-02-11T09:23:24.000Z</time>
      </trkpt>
      <trkpt lat="49.16779" lon="6.69611">
        <ele>208.95</ele>
        <time>2018-02-11T09:23:34.000Z</time>
      </trkpt>
      <trkpt lat="49.16766" lon="6.69602">
        <ele>215.24</ele>
        <time>2018-02-11T09:23:44.000Z</time>
      </trkpt>
      <trkpt lat="49.16755" lon="6.69595">
        <ele>207.7</ele>
        <time>2018-02-11T09:23:54.000Z</time>
      </trkpt>
      <trkpt lat="49.16748" lon="6.69594">
        <ele>203.22</ele>
        <time>2018-02-11T09:24:04.000Z</time>
      </trkpt>
      <trkpt lat="49.16736" lon="6.69596">
        <ele>196.61</ele>
        <time>2018-02-11T09:24:14.000Z</time>
      </trkpt>
      <trkpt lat="49.16722" lon="6.69595">
        <ele>191.51</ele>
        <time>2018-02-11T09:24:24.000Z</time>
      </trkpt>
      <trkpt lat="49.1671" lon="6.6959">
        <ele>191.5</ele>
        <time>2018-02-11T09:24:34.000Z</time>
      </trkpt>
      <trkpt lat="49.16696" lon="6.69592">
        <ele>189.94</ele>
        <time>2018-02-11T09:24:44.000Z</time>
      </trkpt>
      <trkpt lat="49.16684" lon="6.69587">
        <ele>192.82</ele>
        <time>2018-02-11T09:24:54.000Z</time>
      </trkpt>
      <trkpt lat="49.16672" lon="6.69584">
        <ele>190.5</ele>
        <time>2018-02-11T09:25:04.000Z</time>
      </trkpt>
      <trkpt lat="49.16661" lon="6.69579">
        <ele>192.47</ele>
        <time>2018-02-11T09:25:14.000Z</time>
      </trkpt>
      <trkpt lat="49.1665" lon="6.69572">
        <ele>194.53</ele>
        <time>2018-02-11T09:25:24.000Z</time>
      </trkpt>
      <trkpt lat="49.16637" lon="6.69568">
        <ele>196.9</ele>
        <time>2018-02-11T09:25:34.000Z</time>
      </trkpt>
      <trkpt lat="49.16625" lon="6.6956">
        <ele>199.61</ele>
        <time>2018-02-11T09:25:44.000Z</time>
      </trkpt>
      <trkpt lat="49.16615" lon="6.69557">
        <ele>197.84</ele>
        <time>2018-02-11T09:25:54.000Z</time>
      </trkpt>
      <trkpt lat="49.16604" lon="6.69548">
        <ele>198.81</ele>
        <time>2018-02-11T09:26:04.000Z</time>
      </trkpt>
      <trkpt lat="49.16596" lon="6.69534">
        <ele>204.59</ele>
        <time>2018-02-11T09:26:14.000Z</time>
      </trkpt>
      <trkpt lat="49.1659" lon="6.69528">
        <ele>206.88</ele>
        <time>2018-02-11T09:26:24.000Z</time>
      </trkpt>
      <trkpt lat="49.16585" lon="6.69517">
        <ele>206.58</ele>
        <time>2018-02-11T09:26:34.000Z</time>
      </trkpt>
      <trkpt lat="49.16583" lon="6.69501">
        <ele>206.81</ele>
        <time>2018-02-11T09:26:44.000Z</time>
      </trkpt>
      <trkpt lat="49.16575" lon="6.69488">
        <ele>204.4</ele>
        <time>2018-02-11T09:26:54.000Z</time>
      </trkpt>
      <trkpt lat="49.16568" lon="6.69469">
        <ele>207.56</ele>
        <time>2018-02-11T09:27:04.000Z</time>
      </trkpt>
      <trkpt lat="49.1656" lon="6.69452">
        <ele>209.37</ele>
        <time>2018-02-11T09:27:14.000Z</time>
      </trkpt>
      <trkpt lat="49.16553" lon="6.6944">
        <ele>210.48</ele>
        <time>2018-02-11T09:27:24.000Z</time>
      </trkpt>
      <trkpt lat="49.16546" lon="6.69426">
        <ele>208.62</ele>
        <time>2018-02-11T09:27:34.000Z</time>
      </trkpt>
      <trkpt lat="49.16538" lon="6.69411">
        <ele>205.68</ele>
        <time>2018-02-11T09:27:44.000Z</time>
      </trkpt>
      <trkpt lat="49.16531" lon="6.69398">
        <ele>207.34</ele>
        <time>2018-02-11T09:27:54.000Z</time>
      </trkpt>
      <trkpt lat="49.16524" lon="6.69384">
        <ele>209.87</ele>
        <time>2018-02-11T09:28:04.000Z</time>
      </trkpt>
      <trkpt lat="49.16517" lon="6.69368">
        <ele>211.77</ele>
        <time>2018-02-11T09:28:14.000Z</time>
      </trkpt>
      <trkpt lat="49.1651" lon="6.69354">
        <ele>210.92</ele>
        <time>2018-02-11T09:28:24.000Z</time>
      </trkpt>
      <trkpt lat="49.16504" lon="6.69341">
        <ele>209.52</ele>
        <time>2018-02-11T09:28:34.000Z</time>
      </trkpt>
      <trkpt lat="49.16498" lon="6.6933">
        <ele>210.64</ele>
        <time>2018-02-11T09:28:44.000Z</time>
      </trkpt>
      <trkpt lat="49.16493" lon="6.69318">
        <ele>210.06</ele>
        <time>2018-02-11T09:28:54.000Z</time>
      </trkpt>
      <trkpt lat="49.16487" lon="6.693">
        <ele>209.43</ele>
        <time>2018-02-11T09:29:04.000Z</time>
      </trkpt>
      <trkpt lat="49.1648" lon="6.69281">
        <ele>210.27</ele>
        <time>2018-02-11T09:29:14.000Z</time>
      </trkpt>
      <trkpt lat="49.16471" lon="6.69267">
        <ele>209.66</ele>
        <time>2018-02-11T09:29:24.000Z</time>
      </trkpt>
      <trkpt lat="49.16464" lon="6.69254">
        <ele>210.5</ele>
        <time>2018-02-11T09:29:34.000Z</time>
      </trkpt>
      <trkpt lat="49.16457" lon="6.69238">
        <ele>209.34</ele>
        <time>2018-02-11T09:29:44.000Z</time>
      </trkpt>
      <trkpt lat="49.16453" lon="6.69227">
        <ele>208.26</ele>
        <time>2018-02-11T09:29:54.000Z</time>
      </trkpt>
      <trkpt lat="49.16449" lon="6.6921">
        <ele>207.82</ele>
        <time>2018-02-11T09:30:04.000Z</time>
      </trkpt>
      <trkpt lat="49.16448" lon="6.69194">
        <ele>206.58</ele>
        <time>2018-02-11T09:30:14.000Z</time>
      </trkpt>
      <trkpt lat="49.16455" lon="6.69182">
        <ele>208.28</ele>
        <time>2018-02-11T09:30:24.000Z</time>
      </trkpt>
      <trkpt lat="49.16459" lon="6.69171">
        <ele>207.29</ele>
        <time>2018-02-11T09:30:34.000Z</time>
      </trkpt>
      <trkpt lat="49.16465" lon="6.69159">
        <ele>207.15</ele>
        <time>2018-02-11T09:30:44.000Z</time>
      </trkpt>
      <trkpt lat="49.16477" lon="6.69149">
        <ele>203.26</ele>
        <time>2018-02-11T09:30:54.000Z</time>
      </trkpt>
      <trkpt lat="49.16487" lon="6.69138">
        <ele>199.23</ele>
        <time>2018-02-11T09:31:04.000Z</time>
      </trkpt>
      <trkpt lat="49.16498" lon="6.69131">
        <ele>197.02</ele>
        <time>2018-02-11T09:31:14.000Z</time>
      </trkpt>
      <trkpt lat="49.16507" lon="6.6912">
        <ele>191.71</ele>
        <time>2018-02-11T09:31:24.000Z</time>
      </trkpt>
      <trkpt lat="49.16518" lon="6.6911">
        <ele>188.67</ele>
        <time>2018-02-11T09:31:34.000Z</time>
      </trkpt>
      <trkpt lat="49.16528" lon="6.69098">
        <ele>187.67</ele>
        <time>2018-02-11T09:31:44.000Z</time>
      </trkpt>
      <trkpt lat="49.16539" lon="6.69087">
        <ele>187.32</ele>
        <time>2018-02-11T09:31:54.000Z</time>
      </trkpt>
      <trkpt lat="49.16552" lon="6.69083">
        <ele>191.24</ele>
        <time>2018-02-11T09:32:04.000Z</time>
      </trkpt>
      <trkpt lat="49.16563" lon="6.69071">
        <ele>191.18</ele>
        <time>2018-02-11T09:32:14.000Z</time>
      </trkpt>
      <trkpt lat="49.16574" lon="6.69062">
        <ele>192.04</ele>
        <time>2018-02-11T09:32:24.000Z</time>
      </trkpt>
      <trkpt lat="49.16586" lon="6.69055">
        <ele>193.38</ele>
        <time>2018-02-11T09:32:34.000Z</time>
      </trkpt>
      <trkpt lat="49.16595" lon="6.69045">
        <ele>192.85</ele>
        <time>2018-02-11T09:32:44.000Z</time>
      </trkpt>
      <trkpt lat="49.16605" lon="6.69033">
        <ele>191.97</ele>
        <time>2018-02-11T09:32:54.000Z</time>
      </trkpt>
      <trkpt lat="49.16614" lon="6.69019">
        <ele>194.14</ele>
        <time>2018-02-11T09:33:04.000Z</time>
      </trkpt>
      <trkpt lat="49.16623" lon="6.69009">
        <ele>196.56</ele>
        <time>2018-02-11T09:33:14.000Z</time>
      </trkpt>
      <trkpt lat="49.16634" lon="6.69">
        <ele>201.3</ele>
        <time>2018-02-11T09:33:24.000Z</time>
      </trkpt>
      <trkpt lat="49.16644" lon="6.68988">
        <ele>202.16</ele>
        <time>2018-02-11T09:33:34.000Z</time>
      </trkpt>
      <trkpt lat="49.16654" lon="6.68981">
        <ele>202.04</ele>
        <time>2018-02-11T09:33:44.000Z</time>
      </trkpt>
      <trkpt lat="49.16666" lon="6.68971">
        <ele>200.13</ele>
        <time>2018-02-11T09:33:54.000Z</time>
      </trkpt>
      <trkpt lat="49.16676" lon="6.68958">
        <ele>195.35</ele>
        <time>2018-02-11T09:34:04.000Z</time>
      </trkpt>
      <trkpt lat="49.16682" lon="6.68948">
        <ele>194.02</ele>
        <time>2018-02-11T09:34:14.000Z</time>
      </trkpt>
      <trkpt lat="49.16689" lon="6.68937">
        <ele>189.28</ele>
        <time>2018-02-11T09:34:24.000Z</time>
      </trkpt>
      <trkpt lat="49.16699" lon="6.68924">
        <ele>187.53</ele>
        <time>2018-02-11T09:34:34.000Z</time>
      </trkpt>
      <trkpt lat="49.16708" lon="6.68915">
        <ele>187.65</ele>
        <time>2018-02-11T09:34:44.000Z</time>
      </trkpt>
      <trkpt lat="49.16715" lon="6.68917">
        <ele>187.48</ele>
        <time>2018-02-11T09:34:54.000Z</time>
      </trkpt>
      <trkpt lat="49.16729" lon="6.68916">
        <ele>191.69</ele>
        <time>2018-02-11T09:35:04.000Z</time>
      </trkpt>
      <trkpt lat="49.16741" lon="6.68918">
        <ele>192.98</ele>
        <time>2018-02-11T09:35:14.000Z</time>
      </trkpt>
      <trkpt lat="49.16753" lon="6.68919">
        <ele>196.18</ele>
        <time>2018-02-11T09:35:24.000Z</time>
      </trkpt>
      <trkpt lat="49.16762" lon="6.68918">
        <ele>195.44</ele>
        <time>2018-02-11T09:35:34.000Z</time>
      </trkpt>
      <trkpt lat="49.16771" lon="6.68914">
        <ele>196.53</ele>
        <time>2018-02-11T09:35:44.000Z</time>
      </trkpt>
      <trkpt lat="49.16787" lon="6.68908">
        <ele>201.49</ele>
        <time>2018-02-11T09:35:54.000Z</time>
      </trkpt>
      <trkpt lat="49.168" lon="6.689">
        <ele>201.32</ele>
        <time>2018-02-11T09:36:04.000Z</time>
      </trkpt>
      <trkpt lat="49.16808" lon="6.68893">
        <ele>196.66</ele>
        <time>2018-02-11T09:36:14.000Z</time>
      </trkpt>
      <trkpt lat="49.16818" lon="6.68889">
        <ele>194.74</ele>
        <time>2018-02-11T09:36:24.000Z</time>
      </trkpt>
      <trkpt lat="49.16829" lon="6.68882">
        <ele>194.01</ele>
        <time>2018-02-11T09:36:34.000Z</time>
      </trkpt>
      <trkpt lat="49.16839" lon="6.68878">
        <ele>193.8</ele>
        <time>2018-02-11T09:36:44.000Z</time>
      </trkpt>
      <trkpt lat="49.16851" lon="6.6887">
        <ele>191.73</ele>
        <time>2018-02-11T09:36:54.000Z</time>
      </trkpt>
      <trkpt lat="49.16867" lon="6.68863">
        <ele>193.43</ele>
        <time>2018-02-11T09:37:04.000Z</time>
      </trkpt>
      <trkpt lat="49.16879" lon="6.68857">
        <ele>194.65</ele>
        <time>2018-02-11T09:37:14.000Z</time>
      </trkpt>
      <trkpt lat="49.16891" lon="6.68852">
        <ele>196.44</ele>
        <time>2018-02-11T09:37:24.000Z</time>
      </trkpt>
      <trkpt lat="49.16906" lon="6.68847">
        <ele>199.49</ele>
        <time>2018-02-11T09:37:34.000Z</time>
      </trkpt>
      <trkpt lat="49.16919" lon="6.6884">
        <ele>199.93</ele>
        <time>2018-02-11T09:37:44.000Z</time>
      </trkpt>
      <trkpt lat="49.16932" lon="6.68835">
        <ele>198.83</ele>
        <time>2018-02-11T09:37:54.000Z</time>
      </trkpt>
      <trkpt lat="49.16943" lon="6.68832">
        <ele>197.29</ele>
        <time>2018-02-11T09:38:04.000Z</time>
      </trkpt>
      <trkpt lat="49.16955" lon="6.68829">
        <ele>196.82</ele>
        <time>2018-02-11T09:38:14.000Z</time>
      </trkpt>
      <trkpt lat="49.16967" lon="6.68823">
        <ele>192.96</ele>
        <time>2018-02-11T09:38:24.000Z</time>
      </trkpt>
      <trkpt lat="49.16976" lon="6.68828">
        <ele>187.24</ele>
        <time>2018-02-11T09:38:34.000Z</time>
      </trkpt>
      <trkpt lat="49.16984" lon="6.68841">
        <ele>186.88</ele>
        <time>2018-02-11T09:38:44.000Z</time>
      </trkpt>
      <trkpt lat="49.16989" lon="6.68836">
        <ele>186.27</ele>
        <time>2018-02-11T09:38:54.000Z</time>
      </trkpt>
      <trkpt lat="49.1699" lon="6.68824">
        <ele>183.96</ele>
        <time>2018-02-11T09:39:04.000Z</time>
      </trkpt>
      <trkpt lat="49.16991" lon="6.68811">
        <ele>187.84</ele>
        <time>2018-02-11T09:39:14.000Z</time>
      </trkpt>
      <trkpt lat="49.16998" lon="6.68807">
        <ele>187.15</ele>
        <time>2018-02-11T09:39:24.000Z</time>
      </trkpt>
      <trkpt lat="49.17007" lon="6.68804">
        <ele>189.66</ele>
        <time>2018-02-11T09:39:34.000Z</time>
      </trkpt>
      <trkpt lat="49.17019" lon="6.68798">
        <ele>192.55</ele>
        <time>2018-02-11T09:39:44.000Z</time>
      </trkpt>
      <trkpt lat="49.17034" lon="6.68795">
        <ele>193.74</ele>
        <time>2018-02-11T09:39:54.000Z</time>
      </trkpt>
      <trkpt lat="49.17047" lon="6.68794">
        <ele>196.54</ele>
        <time>2018-02-11T09:40:04.000Z</time>
      </trkpt>
      <trkpt lat="49.17058" lon="6.6879">
        <ele>195.86</ele>
        <time>2018-02-11T09:40:14.000Z</time>
      </trkpt>
      <trkpt lat="49.17069" lon="6.68789">
        <ele>193.14</ele>
        <time>2018-02-11T09:40:24.000Z</time>
      </trkpt>
      <trkpt lat="49.17079" lon="6.68787">
        <ele>192.49</ele>
        <time>2018-02-11T09:40:34.000Z</time>
      </trkpt>
      <trkpt lat="49.17085" lon="6.68782">
        <ele>194.56</ele>
        <time>2018-02-11T09:40:44.000Z</time>
      </trkpt>
      <trkpt lat="49.17095" lon="6.68779">
        <ele>192.41</ele>
        <time>2018-02-11T09:40:54.000Z</time>
      </trkpt>
      <trkpt lat="49.17107" lon="6.68776">
        <ele>191.58</ele>
        <time>2018-02-11T09:41:04.000Z</time>
      </trkpt>
      <trkpt lat="49.17117" lon="6.6877">
        <ele>194.78</ele>
        <time>2018-02-11T09:41:14.000Z</time>
      </trkpt>
      <trkpt lat="49.17131" lon="6.68767">
        <ele>192.92</ele>
        <time>2018-02-11T09:41:24.000Z</time>
      </trkpt>
      <trkpt lat="49.17143" lon="6.68762">
        <ele>192.11</ele>
        <time>2018-02-11T09:41:34.000Z</time>
      </trkpt>
      <trkpt lat="49.17156" lon="6.68757">
        <ele>191.56</ele>
        <time>2018-02-11T09:41:44.000Z</time>
      </trkpt>
      <trkpt lat="49.17157" lon="6.68756">
        <ele>192.7</ele>
        <time>2018-02-11T09:41:54.000Z</time>
      </trkpt>
      <trkpt lat="49.17176" lon="6.68753">
        <ele>189.57</ele>
        <time>2018-02-11T09:42:04.000Z</time>
      </trkpt>
      <trkpt lat="49.17188" lon="6.68753">
        <ele>186.64</ele>
        <time>2018-02-11T09:42:14.000Z</time>
      </trkpt>
      <trkpt lat="49.172" lon="6.68754">
        <ele>182.68</ele>
        <time>2018-02-11T09:42:24.000Z</time>
      </trkpt>
      <trkpt lat="49.17212" lon="6.68752">
        <ele>179.27</ele>
        <time>2018-02-11T09:42:34.000Z</time>
      </trkpt>
      <trkpt lat="49.17226" lon="6.68754">
        <ele>175.95</ele>
        <time>2018-02-11T09:42:44.000Z</time>
      </trkpt>
      <trkpt lat="49.17244" lon="6.68759">
        <ele>184.68</ele>
        <time>2018-02-11T09:42:54.000Z</time>
      </trkpt>
      <trkpt lat="49.1726" lon="6.68759">
        <ele>190.26</ele>
        <time>2018-02-11T09:43:04.000Z</time>
      </trkpt>
      <trkpt lat="49.17274" lon="6.68751">
        <ele>194.21</ele>
        <time>2018-02-11T09:43:14.000Z</time>
      </trkpt>
      <trkpt lat="49.17283" lon="6.68746">
        <ele>194.14</ele>
        <time>2018-02-11T09:43:24.000Z</time>
      </trkpt>
      <trkpt lat="49.17292" lon="6.68736">
        <ele>191.96</ele>
        <time>2018-02-11T09:43:34.000Z</time>
      </trkpt>
      <trkpt lat="49.173" lon="6.68726">
        <ele>191.23</ele>
        <time>2018-02-11T09:43:44.000Z</time>
      </trkpt>
      <trkpt lat="49.17309" lon="6.68714">
        <ele>191.38</ele>
        <time>2018-02-11T09:43:54.000Z</time>
      </trkpt>
      <trkpt lat="49.17317" lon="6.68705">
        <ele>193.83</ele>
        <time>2018-02-11T09:44:04.000Z</time>
      </trkpt>
      <trkpt lat="49.17327" lon="6.68695">
        <ele>193.7</ele>
        <time>2018-02-11T09:44:14.000Z</time>
      </trkpt>
      <trkpt lat="49.17339" lon="6.68686">
        <ele>191.61</ele>
        <time>2018-02-11T09:44:24.000Z</time>
      </trkpt>
      <trkpt lat="49.17346" lon="6.68673">
        <ele>190.8</ele>
        <time>2018-02-11T09:44:34.000Z</time>
      </trkpt>
      <trkpt lat="49.17348" lon="6.68655">
        <ele>194.68</ele>
        <time>2018-02-11T09:44:44.000Z</time>
      </trkpt>
      <trkpt lat="49.17353" lon="6.68642">
        <ele>195.48</ele>
        <time>2018-02-11T09:44:54.000Z</time>
      </trkpt>
      <trkpt lat="49.17361" lon="6.68625">
        <ele>200.63</ele>
        <time>2018-02-11T09:45:04.000Z</time>
      </trkpt>
      <trkpt lat="49.17371" lon="6.68609">
        <ele>196.87</ele>
        <time>2018-02-11T09:45:14.000Z</time>
      </trkpt>
      <trkpt lat="49.17377" lon="6.68593">
        <ele>191.51</ele>
        <time>2018-02-11T09:45:24.000Z</time>
      </trkpt>
      <trkpt lat="49.17378" lon="6.6858">
        <ele>189.81</ele>
        <time>2018-02-11T09:45:34.000Z</time>
      </trkpt>
      <trkpt lat="49.17378" lon="6.68563">
        <ele>184.62</ele>
        <time>2018-02-11T09:45:44.000Z</time>
      </trkpt>
      <trkpt lat="49.17375" lon="6.68545">
        <ele>183.46</ele>
        <time>2018-02-11T09:45:54.000Z</time>
      </trkpt>
      <trkpt lat="49.17376" lon="6.6853">
        <ele>181.42</ele>
        <time>2018-02-11T09:46:04.000Z</time>
      </trkpt>
      <trkpt lat="49.17376" lon="6.68509">
        <ele>180.07</ele>
        <time>2018-02-11T09:46:14.000Z</time>
      </trkpt>
      <trkpt lat="49.17377" lon="6.68486">
        <ele>183.35</ele>
        <time>2018-02-11T09:46:24.000Z</time>
      </trkpt>
      <trkpt lat="49.17382" lon="6.68475">
        <ele>187.98</ele>
        <time>2018-02-11T09:46:34.000Z</time>
      </trkpt>
      <trkpt lat="49.17392" lon="6.68472">
        <ele>190.6</ele>
        <time>2018-02-11T09:46:44.000Z</time>
      </trkpt>
      <trkpt lat="49.17401" lon="6.68469">
        <ele>193.84</ele>
        <time>2018-02-11T09:46:54.000Z</time>
      </trkpt>
      <trkpt lat="49.17409" lon="6.6847">
        <ele>193.56</ele>
        <time>2018-02-11T09:47:04.000Z</time>
      </trkpt>
      <trkpt lat="49.17419" lon="6.68469">
        <ele>189.39</ele>
        <time>2018-02-11T09:47:14.000Z</time>
      </trkpt>
      <trkpt lat="49.1743" lon="6.68469">
        <ele>186.38</ele>
        <time>2018-02-11T09:47:24.000Z</time>
      </trkpt>
      <trkpt lat="49.17441" lon="6.68471">
        <ele>183.68</ele>
        <time>2018-02-11T09:47:34.000Z</time>
      </trkpt>
      <trkpt lat="49.17453" lon="6.68472">
        <ele>182.68</ele>
        <time>2018-02-11T09:47:44.000Z</time>
      </trkpt>
      <trkpt lat="49.17466" lon="6.68473">
        <ele>181.51</ele>
        <time>2018-02-11T09:47:54.000Z</time>
      </trkpt>
      <trkpt lat="49.17477" lon="6.68474">
        <ele>180.8</ele>
        <time>2018-02-11T09:48:04.000Z</time>
      </trkpt>
      <trkpt lat="49.17489" lon="6.68476">
        <ele>178.67</ele>
        <time>2018-02-11T09:48:14.000Z</time>
      </trkpt>
      <trkpt lat="49.17502" lon="6.68475">
        <ele>178.76</ele>
        <time>2018-02-11T09:48:24.000Z</time>
      </trkpt>
      <trkpt lat="49.17514" lon="6.68473">
        <ele>180.17</ele>
        <time>2018-02-11T09:48:34.000Z</time>
      </trkpt>
      <trkpt lat="49.17522" lon="6.68465">
        <ele>178.7</ele>
        <time>2018-02-11T09:48:44.000Z</time>
      </trkpt>
      <trkpt lat="49.17529" lon="6.68456">
        <ele>176.48</ele>
        <time>2018-02-11T09:48:54.000Z</time>
      </trkpt>
      <trkpt lat="49.17539" lon="6.68446">
        <ele>178.56</ele>
        <time>2018-02-11T09:49:04.000Z</time>
      </trkpt>
      <trkpt lat="49.17551" lon="6.68428">
        <ele>176.81</ele>
        <time>2018-02-11T09:49:14.000Z</time>
      </trkpt>
      <trkpt lat="49.17561" lon="6.68417">
        <ele>171.89</ele>
        <time>2018-02-11T09:49:24.000Z</time>
      </trkpt>
      <trkpt lat="49.17568" lon="6.68404">
        <ele>167.28</ele>
        <time>2018-02-11T09:49:34.000Z</time>
      </trkpt>
      <trkpt lat="49.17576" lon="6.68386">
        <ele>163.18</ele>
        <time>2018-02-11T09:49:44.000Z</time>
      </trkpt>
      <trkpt lat="49.17583" lon="6.68365">
        <ele>166.84</ele>
        <time>2018-02-11T09:49:54.000Z</time>
      </trkpt>
      <trkpt lat="49.17587" lon="6.68341">
        <ele>178.77</ele>
        <time>2018-02-11T09:50:04.000Z</time>
      </trkpt>
      <trkpt lat="49.17594" lon="6.68326">
        <ele>180.72</ele>
        <time>2018-02-11T09:50:14.000Z</time>
      </trkpt>
      <trkpt lat="49.176" lon="6.6831">
        <ele>180.93</ele>
        <time>2018-02-11T09:50:24.000Z</time>
      </trkpt>
      <trkpt lat="49.17609" lon="6.68293">
        <ele>181.39</ele>
        <time>2018-02-11T09:50:34.000Z</time>
      </trkpt>
      <trkpt lat="49.17617" lon="6.68276">
        <ele>180.3</ele>
        <time>2018-02-11T09:50:44.000Z</time>
      </trkpt>
      <trkpt lat="49.17625" lon="6.68261">
        <ele>180.32</ele>
        <time>2018-02-11T09:50:54.000Z</time>
      </trkpt>
      <trkpt lat="49.17632" lon="6.68244">
        <ele>183.51</ele>
        <time>2018-02-11T09:51:04.000Z</time>
      </trkpt>
      <trkpt lat="49.17638" lon="6.6823">
        <ele>183.51</ele>
        <time>2018-02-11T09:51:14.000Z</time>
      </trkpt>
      <trkpt lat="49.17646" lon="6.68214">
        <ele>183.97</ele>
        <time>2018-02-11T09:51:24.000Z</time>
      </trkpt>
      <trkpt lat="49.17654" lon="6.68201">
        <ele>177.26</ele>
        <time>2018-02-11T09:51:34.000Z</time>
      </trkpt>
      <trkpt lat="49.17655" lon="6.68182">
        <ele>178.77</ele>
        <time>2018-02-11T09:51:44.000Z</time>
      </trkpt>
      <trkpt lat="49.17662" lon="6.68168">
        <ele>178.27</ele>
        <time>2018-02-11T09:51:54.000Z</time>
      </trkpt>
      <trkpt lat="49.17668" lon="6.68153">
        <ele>176.75</ele>
        <time>2018-02-11T09:52:04.000Z</time>
      </trkpt>
      <trkpt lat="49.17671" lon="6.68136">
        <ele>173.96</ele>
        <time>2018-02-11T09:52:14.000Z</time>
      </trkpt>
      <trkpt lat="49.1767" lon="6.68118">
        <ele>171.58</ele>
        <time>2018-02-11T09:52:24.000Z</time>
      </trkpt>
      <trkpt lat="49.17669" lon="6.68098">
        <ele>170.25</ele>
        <time>2018-02-11T09:52:34.000Z</time>
      </trkpt>
      <trkpt lat="49.17668" lon="6.68077">
        <ele>172.01</ele>
        <time>2018-02-11T09:52:44.000Z</time>
      </trkpt>
      <trkpt lat="49.17668" lon="6.68062">
        <ele>168.99</ele>
        <time>2018-02-11T09:52:54.000Z</time>
      </trkpt>
      <trkpt lat="49.17666" lon="6.68044">
        <ele>167.05</ele>
        <time>2018-02-11T09:53:04.000Z</time>
      </trkpt>
      <trkpt lat="49.17665" lon="6.68025">
        <ele>166.68</ele>
        <time>2018-02-11T09:53:14.000Z</time>
      </trkpt>
      <trkpt lat="49.17665" lon="6.68007">
        <ele>166.03</ele>
        <time>2018-02-11T09:53:24.000Z</time>
      </trkpt>
      <trkpt lat="49.17666" lon="6.6799">
        <ele>167.47</ele>
        <time>2018-02-11T09:53:34.000Z</time>
      </trkpt>
      <trkpt lat="49.17665" lon="6.67985">
        <ele>170.01</ele>
        <time>2018-02-11T09:53:44.000Z</time>
      </trkpt>
      <trkpt lat="49.17667" lon="6.67984">
        <ele>170.24</ele>
        <time>2018-02-11T09:53:57.000Z</time>
      </trkpt>
      <trkpt lat="49.17664" lon="6.67981">
        <ele>171.39</ele>
        <time>2018-02-11T09:54:41.000Z</time>
      </trkpt>
      <trkpt lat="49.17667" lon="6.6797">
        <ele>167.59</ele>
        <time>2018-02-11T09:54:51.000Z</time>
      </trkpt>
      <trkpt lat="49.17673" lon="6.67953">
        <ele>166.55</ele>
        <time>2018-02-11T09:55:01.000Z</time>
      </trkpt>
      <trkpt lat="49.17678" lon="6.67938">
        <ele>169.62</ele>
        <time>2018-02-11T09:55:11.000Z</time>
      </trkpt>
      <trkpt lat="49.17686" lon="6.67924">
        <ele>170.06</ele>
        <time>2018-02-11T09:55:21.000Z</time>
      </trkpt>
      <trkpt lat="49.17695" lon="6.67911">
        <ele>170.77</ele>
        <time>2018-02-11T09:55:31.000Z</time>
      </trkpt>
      <trkpt lat="49.17705" lon="6.67896">
        <ele>171.68</ele>
        <time>2018-02-11T09:55:41.000Z</time>
      </trkpt>
      <trkpt lat="49.17713" lon="6.67886">
        <ele>171.43</ele>
        <time>2018-02-11T09:55:51.000Z</time>
      </trkpt>
      <trkpt lat="49.17725" lon="6.67872">
        <ele>175.89</ele>
        <time>2018-02-11T09:56:01.000Z</time>
      </trkpt>
      <trkpt lat="49.17733" lon="6.67856">
        <ele>175.03</ele>
        <time>2018-02-11T09:56:11.000Z</time>
      </trkpt>
      <trkpt lat="49.17739" lon="6.67842">
        <ele>174.17</ele>
        <time>2018-02-11T09:56:21.000Z</time>
      </trkpt>
      <trkpt lat="49.17743" lon="6.67826">
        <ele>172</ele>
        <time>2018-02-11T09:56:31.000Z</time>
      </trkpt>
      <trkpt lat="49.17746" lon="6.67809">
        <ele>170.6</ele>
        <time>2018-02-11T09:56:41.000Z</time>
      </trkpt>
      <trkpt lat="49.17745" lon="6.67794">
        <ele>168.07</ele>
        <time>2018-02-11T09:56:51.000Z</time>
      </trkpt>
      <trkpt lat="49.17745" lon="6.67776">
        <ele>168.38</ele>
        <time>2018-02-11T09:57:01.000Z</time>
      </trkpt>
      <trkpt lat="49.17744" lon="6.67771">
        <ele>169.51</ele>
        <time>2018-02-11T09:57:11.000Z</time>
      </trkpt>
      <trkpt lat="49.17744" lon="6.67766">
        <ele>170.94</ele>
        <time>2018-02-11T09:57:24.000Z</time>
      </trkpt>
      <trkpt lat="49.17744" lon="6.67752">
        <ele>170.32</ele>
        <time>2018-02-11T09:57:34.000Z</time>
      </trkpt>
      <trkpt lat="49.17745" lon="6.67744">
        <ele>169.89</ele>
        <time>2018-02-11T09:57:40.000Z</time>
      </trkpt>
    </trkseg>
  </trk>
</gpx>